<?xml version="1.0" encoding="UTF-8" standalone="no" ?>
<gpx xmlns="http://www.topografix.com/GPX/1/1" xmlns:xsi="http://www.w3.org/2001/XMLSchema-instance" xsi:schemaLocation="http://www.topografix.com/GPX/1/1 http://www.topografix.com/GPX/1/1/gpx.xsd" version="1.1" creator="VisuGPX - https://www.visugpx.com">
  <metadata>
    <name>ALCO_Grabels</name>
  </metadata>
  <trk>
    <name><![CDATA[ALCO_Grabels_1]]></name>
    <extensions>
      <line xmlns="http://www.topografix.com/GPX/gpx_style/0/2">
        <color>0000FF</color>
        <width>4</width>
      </line>
    </extensions>
    <trkseg>
      <trkpt lat="43.62421" lon="3.83694">
        <ele>72.8</ele>
        <time>2021-12-12T09:36:01Z</time>
      </trkpt>
      <trkpt lat="43.62421" lon="3.83694">
        <ele>72.8</ele>
        <time>2021-12-12T09:36:01Z</time>
      </trkpt>
      <trkpt lat="43.62465" lon="3.8366">
        <ele>70.6</ele>
        <time>2021-12-12T09:36:11Z</time>
      </trkpt>
      <trkpt lat="43.62492" lon="3.83644">
        <ele>72.1</ele>
        <time>2021-12-12T09:36:21Z</time>
      </trkpt>
      <trkpt lat="43.6251" lon="3.83607">
        <ele>75</ele>
        <time>2021-12-12T09:36:31Z</time>
      </trkpt>
      <trkpt lat="43.62542" lon="3.8362">
        <ele>72.3</ele>
        <time>2021-12-12T09:36:41Z</time>
      </trkpt>
      <trkpt lat="43.62572" lon="3.83612">
        <ele>73.3</ele>
        <time>2021-12-12T09:36:51Z</time>
      </trkpt>
      <trkpt lat="43.62558" lon="3.83574">
        <ele>73.9</ele>
        <time>2021-12-12T09:37:01Z</time>
      </trkpt>
      <trkpt lat="43.62532" lon="3.83542">
        <ele>74.4</ele>
        <time>2021-12-12T09:37:11Z</time>
      </trkpt>
      <trkpt lat="43.62518" lon="3.83502">
        <ele>74.8</ele>
        <time>2021-12-12T09:37:21Z</time>
      </trkpt>
      <trkpt lat="43.62505" lon="3.83459">
        <ele>74.9</ele>
        <time>2021-12-12T09:37:31Z</time>
      </trkpt>
      <trkpt lat="43.62518" lon="3.83401">
        <ele>76.1</ele>
        <time>2021-12-12T09:37:41Z</time>
      </trkpt>
      <trkpt lat="43.62535" lon="3.83346">
        <ele>76.5</ele>
        <time>2021-12-12T09:37:51Z</time>
      </trkpt>
      <trkpt lat="43.62549" lon="3.83298">
        <ele>77.5</ele>
        <time>2021-12-12T09:38:01Z</time>
      </trkpt>
      <trkpt lat="43.62572" lon="3.83266">
        <ele>78.3</ele>
        <time>2021-12-12T09:38:11Z</time>
      </trkpt>
      <trkpt lat="43.62594" lon="3.83233">
        <ele>79.2</ele>
        <time>2021-12-12T09:38:21Z</time>
      </trkpt>
      <trkpt lat="43.62618" lon="3.83207">
        <ele>80.1</ele>
        <time>2021-12-12T09:38:31Z</time>
      </trkpt>
      <trkpt lat="43.62644" lon="3.83186">
        <ele>81.2</ele>
        <time>2021-12-12T09:38:41Z</time>
      </trkpt>
      <trkpt lat="43.62667" lon="3.83164">
        <ele>82.1</ele>
        <time>2021-12-12T09:38:51Z</time>
      </trkpt>
      <trkpt lat="43.62685" lon="3.83143">
        <ele>83.5</ele>
        <time>2021-12-12T09:39:01Z</time>
      </trkpt>
      <trkpt lat="43.62709" lon="3.83127">
        <ele>84.7</ele>
        <time>2021-12-12T09:39:11Z</time>
      </trkpt>
      <trkpt lat="43.62735" lon="3.83113">
        <ele>85.9</ele>
        <time>2021-12-12T09:39:21Z</time>
      </trkpt>
      <trkpt lat="43.62764" lon="3.831">
        <ele>85.7</ele>
        <time>2021-12-12T09:39:31Z</time>
      </trkpt>
      <trkpt lat="43.62802" lon="3.83093">
        <ele>84.5</ele>
        <time>2021-12-12T09:39:41Z</time>
      </trkpt>
      <trkpt lat="43.6284" lon="3.83081">
        <ele>83.4</ele>
        <time>2021-12-12T09:39:51Z</time>
      </trkpt>
      <trkpt lat="43.62834" lon="3.83016">
        <ele>77.2</ele>
        <time>2021-12-12T09:40:01Z</time>
      </trkpt>
      <trkpt lat="43.62833" lon="3.82949">
        <ele>72.5</ele>
        <time>2021-12-12T09:40:11Z</time>
      </trkpt>
      <trkpt lat="43.6286" lon="3.82947">
        <ele>73.2</ele>
        <time>2021-12-12T09:40:21Z</time>
      </trkpt>
      <trkpt lat="43.62896" lon="3.82953">
        <ele>74.2</ele>
        <time>2021-12-12T09:40:31Z</time>
      </trkpt>
      <trkpt lat="43.62927" lon="3.82966">
        <ele>76.3</ele>
        <time>2021-12-12T09:40:41Z</time>
      </trkpt>
      <trkpt lat="43.62954" lon="3.82977">
        <ele>77.6</ele>
        <time>2021-12-12T09:40:51Z</time>
      </trkpt>
      <trkpt lat="43.62987" lon="3.82968">
        <ele>78.2</ele>
        <time>2021-12-12T09:41:01Z</time>
      </trkpt>
      <trkpt lat="43.63022" lon="3.82952">
        <ele>78.3</ele>
        <time>2021-12-12T09:41:11Z</time>
      </trkpt>
      <trkpt lat="43.63045" lon="3.82975">
        <ele>80.7</ele>
        <time>2021-12-12T09:41:21Z</time>
      </trkpt>
      <trkpt lat="43.63066" lon="3.82993">
        <ele>80.2</ele>
        <time>2021-12-12T09:41:31Z</time>
      </trkpt>
      <trkpt lat="43.63097" lon="3.82973">
        <ele>78.5</ele>
        <time>2021-12-12T09:41:41Z</time>
      </trkpt>
      <trkpt lat="43.6312" lon="3.82975">
        <ele>76.7</ele>
        <time>2021-12-12T09:41:51Z</time>
      </trkpt>
      <trkpt lat="43.63151" lon="3.82973">
        <ele>74.5</ele>
        <time>2021-12-12T09:42:01Z</time>
      </trkpt>
      <trkpt lat="43.63189" lon="3.82964">
        <ele>75.8</ele>
        <time>2021-12-12T09:42:11Z</time>
      </trkpt>
      <trkpt lat="43.63207" lon="3.82939">
        <ele>77.1</ele>
        <time>2021-12-12T09:42:21Z</time>
      </trkpt>
      <trkpt lat="43.63195" lon="3.82902">
        <ele>78.1</ele>
        <time>2021-12-12T09:42:31Z</time>
      </trkpt>
      <trkpt lat="43.63189" lon="3.82865">
        <ele>79.4</ele>
        <time>2021-12-12T09:42:41Z</time>
      </trkpt>
      <trkpt lat="43.63181" lon="3.82826">
        <ele>80.9</ele>
        <time>2021-12-12T09:42:51Z</time>
      </trkpt>
      <trkpt lat="43.63175" lon="3.82789">
        <ele>80.3</ele>
        <time>2021-12-12T09:43:01Z</time>
      </trkpt>
      <trkpt lat="43.63192" lon="3.82759">
        <ele>82.4</ele>
        <time>2021-12-12T09:43:11Z</time>
      </trkpt>
      <trkpt lat="43.63208" lon="3.82728">
        <ele>81.9</ele>
        <time>2021-12-12T09:43:21Z</time>
      </trkpt>
      <trkpt lat="43.63229" lon="3.82694">
        <ele>83.2</ele>
        <time>2021-12-12T09:43:31Z</time>
      </trkpt>
      <trkpt lat="43.63255" lon="3.82655">
        <ele>81.9</ele>
        <time>2021-12-12T09:43:41Z</time>
      </trkpt>
      <trkpt lat="43.63291" lon="3.82617">
        <ele>80.4</ele>
        <time>2021-12-12T09:43:51Z</time>
      </trkpt>
      <trkpt lat="43.63332" lon="3.82583">
        <ele>79.8</ele>
        <time>2021-12-12T09:44:01Z</time>
      </trkpt>
      <trkpt lat="43.63375" lon="3.82559">
        <ele>80.2</ele>
        <time>2021-12-12T09:44:11Z</time>
      </trkpt>
      <trkpt lat="43.63413" lon="3.82553">
        <ele>81.8</ele>
        <time>2021-12-12T09:44:21Z</time>
      </trkpt>
      <trkpt lat="43.63442" lon="3.82549">
        <ele>84.5</ele>
        <time>2021-12-12T09:44:31Z</time>
      </trkpt>
      <trkpt lat="43.63469" lon="3.82545">
        <ele>86.4</ele>
        <time>2021-12-12T09:44:41Z</time>
      </trkpt>
      <trkpt lat="43.63496" lon="3.82543">
        <ele>87.8</ele>
        <time>2021-12-12T09:44:51Z</time>
      </trkpt>
      <trkpt lat="43.63523" lon="3.82538">
        <ele>88.8</ele>
        <time>2021-12-12T09:45:01Z</time>
      </trkpt>
      <trkpt lat="43.63552" lon="3.82529">
        <ele>89.8</ele>
        <time>2021-12-12T09:45:11Z</time>
      </trkpt>
      <trkpt lat="43.63574" lon="3.82528">
        <ele>90.7</ele>
        <time>2021-12-12T09:45:21Z</time>
      </trkpt>
      <trkpt lat="43.63579" lon="3.82571">
        <ele>89</ele>
        <time>2021-12-12T09:45:31Z</time>
      </trkpt>
      <trkpt lat="43.63588" lon="3.82613">
        <ele>88.8</ele>
        <time>2021-12-12T09:45:41Z</time>
      </trkpt>
      <trkpt lat="43.63613" lon="3.82649">
        <ele>86.6</ele>
        <time>2021-12-12T09:45:51Z</time>
      </trkpt>
      <trkpt lat="43.63635" lon="3.82697">
        <ele>83.1</ele>
        <time>2021-12-12T09:46:01Z</time>
      </trkpt>
      <trkpt lat="43.63636" lon="3.82763">
        <ele>78.6</ele>
        <time>2021-12-12T09:46:11Z</time>
      </trkpt>
      <trkpt lat="43.63673" lon="3.82774">
        <ele>78.3</ele>
        <time>2021-12-12T09:46:21Z</time>
      </trkpt>
      <trkpt lat="43.63718" lon="3.82763">
        <ele>78.6</ele>
        <time>2021-12-12T09:46:31Z</time>
      </trkpt>
      <trkpt lat="43.63763" lon="3.82753">
        <ele>78.4</ele>
        <time>2021-12-12T09:46:41Z</time>
      </trkpt>
      <trkpt lat="43.63805" lon="3.82737">
        <ele>79</ele>
        <time>2021-12-12T09:46:51Z</time>
      </trkpt>
      <trkpt lat="43.63844" lon="3.82722">
        <ele>81</ele>
        <time>2021-12-12T09:47:01Z</time>
      </trkpt>
      <trkpt lat="43.63871" lon="3.82723">
        <ele>81.3</ele>
        <time>2021-12-12T09:47:11Z</time>
      </trkpt>
      <trkpt lat="43.63885" lon="3.82746">
        <ele>80.9</ele>
        <time>2021-12-12T09:47:21Z</time>
      </trkpt>
      <trkpt lat="43.63904" lon="3.8278">
        <ele>79.9</ele>
        <time>2021-12-12T09:47:31Z</time>
      </trkpt>
      <trkpt lat="43.63923" lon="3.82811">
        <ele>78.8</ele>
        <time>2021-12-12T09:47:41Z</time>
      </trkpt>
      <trkpt lat="43.63948" lon="3.82816">
        <ele>79.1</ele>
        <time>2021-12-12T09:47:51Z</time>
      </trkpt>
      <trkpt lat="43.63979" lon="3.828">
        <ele>80.5</ele>
        <time>2021-12-12T09:48:01Z</time>
      </trkpt>
      <trkpt lat="43.64013" lon="3.8279">
        <ele>82.6</ele>
        <time>2021-12-12T09:48:11Z</time>
      </trkpt>
      <trkpt lat="43.64026" lon="3.82761">
        <ele>84.2</ele>
        <time>2021-12-12T09:48:21Z</time>
      </trkpt>
      <trkpt lat="43.64039" lon="3.82732">
        <ele>85.6</ele>
        <time>2021-12-12T09:48:31Z</time>
      </trkpt>
      <trkpt lat="43.64055" lon="3.82705">
        <ele>87.2</ele>
        <time>2021-12-12T09:48:41Z</time>
      </trkpt>
      <trkpt lat="43.64063" lon="3.82676">
        <ele>88.8</ele>
        <time>2021-12-12T09:48:51Z</time>
      </trkpt>
      <trkpt lat="43.64077" lon="3.8265">
        <ele>90.5</ele>
        <time>2021-12-12T09:49:01Z</time>
      </trkpt>
      <trkpt lat="43.64082" lon="3.82623">
        <ele>92.1</ele>
        <time>2021-12-12T09:49:11Z</time>
      </trkpt>
      <trkpt lat="43.64091" lon="3.82593">
        <ele>93.7</ele>
        <time>2021-12-12T09:49:21Z</time>
      </trkpt>
      <trkpt lat="43.64101" lon="3.82566">
        <ele>94.4</ele>
        <time>2021-12-12T09:49:31Z</time>
      </trkpt>
      <trkpt lat="43.6411" lon="3.82538">
        <ele>95.6</ele>
        <time>2021-12-12T09:49:41Z</time>
      </trkpt>
      <trkpt lat="43.64122" lon="3.82512">
        <ele>96.6</ele>
        <time>2021-12-12T09:49:51Z</time>
      </trkpt>
      <trkpt lat="43.64135" lon="3.82484">
        <ele>98</ele>
        <time>2021-12-12T09:50:01Z</time>
      </trkpt>
      <trkpt lat="43.64145" lon="3.82453">
        <ele>99.2</ele>
        <time>2021-12-12T09:50:11Z</time>
      </trkpt>
      <trkpt lat="43.6415" lon="3.82433">
        <ele>99.8</ele>
        <time>2021-12-12T09:50:21Z</time>
      </trkpt>
      <trkpt lat="43.64156" lon="3.82405">
        <ele>100.9</ele>
        <time>2021-12-12T09:50:31Z</time>
      </trkpt>
      <trkpt lat="43.64167" lon="3.82377">
        <ele>102.4</ele>
        <time>2021-12-12T09:50:41Z</time>
      </trkpt>
      <trkpt lat="43.64179" lon="3.82358">
        <ele>102.9</ele>
        <time>2021-12-12T09:50:51Z</time>
      </trkpt>
      <trkpt lat="43.64189" lon="3.82325">
        <ele>102.6</ele>
        <time>2021-12-12T09:51:01Z</time>
      </trkpt>
      <trkpt lat="43.64217" lon="3.82306">
        <ele>102</ele>
        <time>2021-12-12T09:51:11Z</time>
      </trkpt>
      <trkpt lat="43.64247" lon="3.82304">
        <ele>100.4</ele>
        <time>2021-12-12T09:51:21Z</time>
      </trkpt>
      <trkpt lat="43.64283" lon="3.82309">
        <ele>98.7</ele>
        <time>2021-12-12T09:51:31Z</time>
      </trkpt>
      <trkpt lat="43.64317" lon="3.82295">
        <ele>98.6</ele>
        <time>2021-12-12T09:51:41Z</time>
      </trkpt>
      <trkpt lat="43.64348" lon="3.82276">
        <ele>98.5</ele>
        <time>2021-12-12T09:51:51Z</time>
      </trkpt>
      <trkpt lat="43.64368" lon="3.82261">
        <ele>98</ele>
        <time>2021-12-12T09:52:01Z</time>
      </trkpt>
      <trkpt lat="43.64365" lon="3.82234">
        <ele>98.5</ele>
        <time>2021-12-12T09:52:11Z</time>
      </trkpt>
      <trkpt lat="43.64359" lon="3.82204">
        <ele>99.7</ele>
        <time>2021-12-12T09:52:21Z</time>
      </trkpt>
      <trkpt lat="43.64348" lon="3.82186">
        <ele>100.3</ele>
        <time>2021-12-12T09:52:31Z</time>
      </trkpt>
      <trkpt lat="43.64342" lon="3.82159">
        <ele>101.6</ele>
        <time>2021-12-12T09:52:41Z</time>
      </trkpt>
      <trkpt lat="43.6434" lon="3.82125">
        <ele>102.8</ele>
        <time>2021-12-12T09:52:51Z</time>
      </trkpt>
      <trkpt lat="43.64343" lon="3.82095">
        <ele>104.1</ele>
        <time>2021-12-12T09:53:01Z</time>
      </trkpt>
      <trkpt lat="43.64353" lon="3.82069">
        <ele>105.5</ele>
        <time>2021-12-12T09:53:11Z</time>
      </trkpt>
      <trkpt lat="43.64364" lon="3.82042">
        <ele>107.5</ele>
        <time>2021-12-12T09:53:21Z</time>
      </trkpt>
      <trkpt lat="43.64378" lon="3.82015">
        <ele>107.6</ele>
        <time>2021-12-12T09:53:31Z</time>
      </trkpt>
      <trkpt lat="43.64388" lon="3.81984">
        <ele>109.2</ele>
        <time>2021-12-12T09:53:41Z</time>
      </trkpt>
      <trkpt lat="43.64401" lon="3.81954">
        <ele>110.5</ele>
        <time>2021-12-12T09:53:51Z</time>
      </trkpt>
      <trkpt lat="43.64404" lon="3.81932">
        <ele>112.3</ele>
        <time>2021-12-12T09:54:01Z</time>
      </trkpt>
      <trkpt lat="43.64415" lon="3.8191">
        <ele>113.3</ele>
        <time>2021-12-12T09:54:11Z</time>
      </trkpt>
      <trkpt lat="43.64416" lon="3.81882">
        <ele>114.5</ele>
        <time>2021-12-12T09:54:21Z</time>
      </trkpt>
      <trkpt lat="43.64416" lon="3.81854">
        <ele>116</ele>
        <time>2021-12-12T09:54:31Z</time>
      </trkpt>
      <trkpt lat="43.64414" lon="3.81825">
        <ele>116.6</ele>
        <time>2021-12-12T09:54:41Z</time>
      </trkpt>
      <trkpt lat="43.64422" lon="3.818">
        <ele>118</ele>
        <time>2021-12-12T09:54:51Z</time>
      </trkpt>
      <trkpt lat="43.64406" lon="3.81769">
        <ele>119</ele>
        <time>2021-12-12T09:55:01Z</time>
      </trkpt>
      <trkpt lat="43.64386" lon="3.81738">
        <ele>118.9</ele>
        <time>2021-12-12T09:55:11Z</time>
      </trkpt>
      <trkpt lat="43.64373" lon="3.81705">
        <ele>119.6</ele>
        <time>2021-12-12T09:55:21Z</time>
      </trkpt>
      <trkpt lat="43.64364" lon="3.81671">
        <ele>120.3</ele>
        <time>2021-12-12T09:55:31Z</time>
      </trkpt>
      <trkpt lat="43.64351" lon="3.81639">
        <ele>121.3</ele>
        <time>2021-12-12T09:55:41Z</time>
      </trkpt>
      <trkpt lat="43.64338" lon="3.81604">
        <ele>122</ele>
        <time>2021-12-12T09:55:51Z</time>
      </trkpt>
      <trkpt lat="43.64328" lon="3.81568">
        <ele>122.5</ele>
        <time>2021-12-12T09:56:01Z</time>
      </trkpt>
      <trkpt lat="43.64319" lon="3.81526">
        <ele>122.9</ele>
        <time>2021-12-12T09:56:11Z</time>
      </trkpt>
      <trkpt lat="43.64311" lon="3.81489">
        <ele>121.5</ele>
        <time>2021-12-12T09:56:21Z</time>
      </trkpt>
      <trkpt lat="43.64297" lon="3.81443">
        <ele>121.2</ele>
        <time>2021-12-12T09:56:31Z</time>
      </trkpt>
      <trkpt lat="43.6428" lon="3.81393">
        <ele>118.4</ele>
        <time>2021-12-12T09:56:41Z</time>
      </trkpt>
      <trkpt lat="43.64261" lon="3.81346">
        <ele>117</ele>
        <time>2021-12-12T09:56:51Z</time>
      </trkpt>
      <trkpt lat="43.64234" lon="3.81304">
        <ele>116.9</ele>
        <time>2021-12-12T09:57:01Z</time>
      </trkpt>
      <trkpt lat="43.64211" lon="3.81264">
        <ele>115.8</ele>
        <time>2021-12-12T09:57:11Z</time>
      </trkpt>
      <trkpt lat="43.64188" lon="3.81223">
        <ele>118</ele>
        <time>2021-12-12T09:57:21Z</time>
      </trkpt>
      <trkpt lat="43.6416" lon="3.81186">
        <ele>117.4</ele>
        <time>2021-12-12T09:57:31Z</time>
      </trkpt>
      <trkpt lat="43.64127" lon="3.81149">
        <ele>115.8</ele>
        <time>2021-12-12T09:57:41Z</time>
      </trkpt>
      <trkpt lat="43.64101" lon="3.81114">
        <ele>116.4</ele>
        <time>2021-12-12T09:57:51Z</time>
      </trkpt>
      <trkpt lat="43.64085" lon="3.81089">
        <ele>116</ele>
        <time>2021-12-12T09:58:01Z</time>
      </trkpt>
      <trkpt lat="43.64103" lon="3.81051">
        <ele>109.6</ele>
        <time>2021-12-12T09:58:11Z</time>
      </trkpt>
      <trkpt lat="43.64117" lon="3.81016">
        <ele>105.3</ele>
        <time>2021-12-12T09:58:21Z</time>
      </trkpt>
      <trkpt lat="43.64133" lon="3.80992">
        <ele>101.8</ele>
        <time>2021-12-12T09:58:31Z</time>
      </trkpt>
      <trkpt lat="43.64142" lon="3.81006">
        <ele>100.3</ele>
        <time>2021-12-12T09:58:41Z</time>
      </trkpt>
      <trkpt lat="43.64149" lon="3.81027">
        <ele>97.9</ele>
        <time>2021-12-12T09:58:51Z</time>
      </trkpt>
      <trkpt lat="43.64157" lon="3.81059">
        <ele>97.2</ele>
        <time>2021-12-12T09:59:01Z</time>
      </trkpt>
      <trkpt lat="43.64175" lon="3.81065">
        <ele>94.1</ele>
        <time>2021-12-12T09:59:11Z</time>
      </trkpt>
      <trkpt lat="43.64189" lon="3.8104">
        <ele>90.8</ele>
        <time>2021-12-12T09:59:21Z</time>
      </trkpt>
      <trkpt lat="43.64213" lon="3.8101">
        <ele>89.2</ele>
        <time>2021-12-12T09:59:31Z</time>
      </trkpt>
      <trkpt lat="43.64229" lon="3.80961">
        <ele>89.2</ele>
        <time>2021-12-12T09:59:41Z</time>
      </trkpt>
      <trkpt lat="43.64235" lon="3.80905">
        <ele>88.5</ele>
        <time>2021-12-12T09:59:51Z</time>
      </trkpt>
      <trkpt lat="43.64222" lon="3.80856">
        <ele>87.5</ele>
        <time>2021-12-12T10:00:01Z</time>
      </trkpt>
      <trkpt lat="43.64224" lon="3.80813">
        <ele>83.2</ele>
        <time>2021-12-12T10:00:11Z</time>
      </trkpt>
      <trkpt lat="43.6422" lon="3.80762">
        <ele>80.3</ele>
        <time>2021-12-12T10:00:21Z</time>
      </trkpt>
      <trkpt lat="43.64218" lon="3.80725">
        <ele>79.5</ele>
        <time>2021-12-12T10:00:31Z</time>
      </trkpt>
      <trkpt lat="43.64194" lon="3.80676">
        <ele>78.4</ele>
        <time>2021-12-12T10:00:41Z</time>
      </trkpt>
      <trkpt lat="43.64166" lon="3.80654">
        <ele>80</ele>
        <time>2021-12-12T10:00:51Z</time>
      </trkpt>
      <trkpt lat="43.64147" lon="3.80637">
        <ele>79.6</ele>
        <time>2021-12-12T10:01:01Z</time>
      </trkpt>
      <trkpt lat="43.64125" lon="3.80622">
        <ele>78.8</ele>
        <time>2021-12-12T10:01:11Z</time>
      </trkpt>
      <trkpt lat="43.64105" lon="3.80593">
        <ele>75.1</ele>
        <time>2021-12-12T10:01:21Z</time>
      </trkpt>
      <trkpt lat="43.64092" lon="3.8061">
        <ele>72.2</ele>
        <time>2021-12-12T10:01:31Z</time>
      </trkpt>
      <trkpt lat="43.64065" lon="3.80613">
        <ele>67.3</ele>
        <time>2021-12-12T10:01:41Z</time>
      </trkpt>
      <trkpt lat="43.64021" lon="3.80631">
        <ele>62.1</ele>
        <time>2021-12-12T10:01:51Z</time>
      </trkpt>
      <trkpt lat="43.63976" lon="3.80649">
        <ele>57.1</ele>
        <time>2021-12-12T10:02:01Z</time>
      </trkpt>
      <trkpt lat="43.63932" lon="3.80663">
        <ele>52.4</ele>
        <time>2021-12-12T10:02:11Z</time>
      </trkpt>
      <trkpt lat="43.63909" lon="3.80635">
        <ele>50.5</ele>
        <time>2021-12-12T10:02:21Z</time>
      </trkpt>
      <trkpt lat="43.63908" lon="3.80584">
        <ele>51.1</ele>
        <time>2021-12-12T10:02:31Z</time>
      </trkpt>
      <trkpt lat="43.63908" lon="3.80544">
        <ele>53</ele>
        <time>2021-12-12T10:02:41Z</time>
      </trkpt>
      <trkpt lat="43.63912" lon="3.80504">
        <ele>55</ele>
        <time>2021-12-12T10:02:51Z</time>
      </trkpt>
      <trkpt lat="43.63915" lon="3.80472">
        <ele>55.8</ele>
        <time>2021-12-12T10:03:01Z</time>
      </trkpt>
      <trkpt lat="43.63915" lon="3.80443">
        <ele>56</ele>
        <time>2021-12-12T10:03:11Z</time>
      </trkpt>
      <trkpt lat="43.63902" lon="3.80409">
        <ele>57</ele>
        <time>2021-12-12T10:03:21Z</time>
      </trkpt>
      <trkpt lat="43.63887" lon="3.80372">
        <ele>56.6</ele>
        <time>2021-12-12T10:03:31Z</time>
      </trkpt>
      <trkpt lat="43.63871" lon="3.80338">
        <ele>56.8</ele>
        <time>2021-12-12T10:03:41Z</time>
      </trkpt>
      <trkpt lat="43.63858" lon="3.803">
        <ele>57</ele>
        <time>2021-12-12T10:03:51Z</time>
      </trkpt>
      <trkpt lat="43.63844" lon="3.80262">
        <ele>56.6</ele>
        <time>2021-12-12T10:04:01Z</time>
      </trkpt>
      <trkpt lat="43.6384" lon="3.80221">
        <ele>56.4</ele>
        <time>2021-12-12T10:04:11Z</time>
      </trkpt>
      <trkpt lat="43.63847" lon="3.80178">
        <ele>56.5</ele>
        <time>2021-12-12T10:04:21Z</time>
      </trkpt>
      <trkpt lat="43.6387" lon="3.80138">
        <ele>55.7</ele>
        <time>2021-12-12T10:04:31Z</time>
      </trkpt>
      <trkpt lat="43.63892" lon="3.80098">
        <ele>51.1</ele>
        <time>2021-12-12T10:04:41Z</time>
      </trkpt>
      <trkpt lat="43.63926" lon="3.80086">
        <ele>52.6</ele>
        <time>2021-12-12T10:04:51Z</time>
      </trkpt>
      <trkpt lat="43.63959" lon="3.80064">
        <ele>52.7</ele>
        <time>2021-12-12T10:05:01Z</time>
      </trkpt>
      <trkpt lat="43.63991" lon="3.80044">
        <ele>53</ele>
        <time>2021-12-12T10:05:11Z</time>
      </trkpt>
      <trkpt lat="43.6402" lon="3.80022">
        <ele>52.4</ele>
        <time>2021-12-12T10:05:21Z</time>
      </trkpt>
      <trkpt lat="43.64046" lon="3.80001">
        <ele>51.6</ele>
        <time>2021-12-12T10:05:31Z</time>
      </trkpt>
      <trkpt lat="43.64078" lon="3.79979">
        <ele>52.3</ele>
        <time>2021-12-12T10:05:41Z</time>
      </trkpt>
      <trkpt lat="43.64105" lon="3.79958">
        <ele>53.2</ele>
        <time>2021-12-12T10:05:51Z</time>
      </trkpt>
      <trkpt lat="43.64132" lon="3.79938">
        <ele>52.6</ele>
        <time>2021-12-12T10:06:01Z</time>
      </trkpt>
      <trkpt lat="43.64158" lon="3.79917">
        <ele>52.1</ele>
        <time>2021-12-12T10:06:11Z</time>
      </trkpt>
      <trkpt lat="43.64186" lon="3.79895">
        <ele>51.9</ele>
        <time>2021-12-12T10:06:21Z</time>
      </trkpt>
      <trkpt lat="43.64217" lon="3.79885">
        <ele>52.8</ele>
        <time>2021-12-12T10:06:31Z</time>
      </trkpt>
      <trkpt lat="43.64232" lon="3.79854">
        <ele>53</ele>
        <time>2021-12-12T10:06:41Z</time>
      </trkpt>
      <trkpt lat="43.64266" lon="3.7983">
        <ele>53.6</ele>
        <time>2021-12-12T10:06:51Z</time>
      </trkpt>
      <trkpt lat="43.64306" lon="3.79811">
        <ele>53</ele>
        <time>2021-12-12T10:07:01Z</time>
      </trkpt>
      <trkpt lat="43.64344" lon="3.79789">
        <ele>52.6</ele>
        <time>2021-12-12T10:07:11Z</time>
      </trkpt>
      <trkpt lat="43.64376" lon="3.79779">
        <ele>53</ele>
        <time>2021-12-12T10:07:21Z</time>
      </trkpt>
      <trkpt lat="43.64401" lon="3.79786">
        <ele>53.1</ele>
        <time>2021-12-12T10:07:31Z</time>
      </trkpt>
      <trkpt lat="43.64433" lon="3.79786">
        <ele>53.5</ele>
        <time>2021-12-12T10:07:41Z</time>
      </trkpt>
      <trkpt lat="43.64457" lon="3.79773">
        <ele>53.7</ele>
        <time>2021-12-12T10:07:51Z</time>
      </trkpt>
      <trkpt lat="43.64485" lon="3.79749">
        <ele>52.9</ele>
        <time>2021-12-12T10:08:01Z</time>
      </trkpt>
      <trkpt lat="43.64508" lon="3.79711">
        <ele>53.2</ele>
        <time>2021-12-12T10:08:11Z</time>
      </trkpt>
      <trkpt lat="43.64529" lon="3.79675">
        <ele>54</ele>
        <time>2021-12-12T10:08:21Z</time>
      </trkpt>
      <trkpt lat="43.64549" lon="3.79634">
        <ele>53.5</ele>
        <time>2021-12-12T10:08:31Z</time>
      </trkpt>
      <trkpt lat="43.64563" lon="3.79588">
        <ele>53.4</ele>
        <time>2021-12-12T10:08:41Z</time>
      </trkpt>
      <trkpt lat="43.64573" lon="3.79543">
        <ele>53.6</ele>
        <time>2021-12-12T10:08:51Z</time>
      </trkpt>
      <trkpt lat="43.64587" lon="3.79501">
        <ele>53.2</ele>
        <time>2021-12-12T10:09:01Z</time>
      </trkpt>
      <trkpt lat="43.646" lon="3.79469">
        <ele>53.7</ele>
        <time>2021-12-12T10:09:11Z</time>
      </trkpt>
      <trkpt lat="43.646" lon="3.79442">
        <ele>54.4</ele>
        <time>2021-12-12T10:09:21Z</time>
      </trkpt>
      <trkpt lat="43.64621" lon="3.79418">
        <ele>53.6</ele>
        <time>2021-12-12T10:09:31Z</time>
      </trkpt>
      <trkpt lat="43.64641" lon="3.79377">
        <ele>54.4</ele>
        <time>2021-12-12T10:09:41Z</time>
      </trkpt>
      <trkpt lat="43.64653" lon="3.79341">
        <ele>54.7</ele>
        <time>2021-12-12T10:09:51Z</time>
      </trkpt>
      <trkpt lat="43.64665" lon="3.79301">
        <ele>54.6</ele>
        <time>2021-12-12T10:10:01Z</time>
      </trkpt>
      <trkpt lat="43.64685" lon="3.79285">
        <ele>55.2</ele>
        <time>2021-12-12T10:10:11Z</time>
      </trkpt>
      <trkpt lat="43.647" lon="3.79271">
        <ele>55</ele>
        <time>2021-12-12T10:10:21Z</time>
      </trkpt>
      <trkpt lat="43.64711" lon="3.79243">
        <ele>56</ele>
        <time>2021-12-12T10:10:31Z</time>
      </trkpt>
      <trkpt lat="43.64718" lon="3.79216">
        <ele>58.1</ele>
        <time>2021-12-12T10:10:41Z</time>
      </trkpt>
      <trkpt lat="43.64718" lon="3.79193">
        <ele>61.2</ele>
        <time>2021-12-12T10:10:51Z</time>
      </trkpt>
      <trkpt lat="43.64735" lon="3.79178">
        <ele>61.6</ele>
        <time>2021-12-12T10:11:01Z</time>
      </trkpt>
      <trkpt lat="43.64751" lon="3.79163">
        <ele>61.7</ele>
        <time>2021-12-12T10:11:11Z</time>
      </trkpt>
      <trkpt lat="43.64768" lon="3.79148">
        <ele>62.2</ele>
        <time>2021-12-12T10:11:21Z</time>
      </trkpt>
      <trkpt lat="43.64792" lon="3.79135">
        <ele>60.4</ele>
        <time>2021-12-12T10:11:31Z</time>
      </trkpt>
      <trkpt lat="43.64825" lon="3.79109">
        <ele>57.8</ele>
        <time>2021-12-12T10:11:41Z</time>
      </trkpt>
      <trkpt lat="43.64852" lon="3.79078">
        <ele>57.5</ele>
        <time>2021-12-12T10:11:51Z</time>
      </trkpt>
      <trkpt lat="43.64884" lon="3.79052">
        <ele>57.4</ele>
        <time>2021-12-12T10:12:01Z</time>
      </trkpt>
      <trkpt lat="43.64914" lon="3.79031">
        <ele>57.8</ele>
        <time>2021-12-12T10:12:11Z</time>
      </trkpt>
      <trkpt lat="43.64946" lon="3.79006">
        <ele>57.9</ele>
        <time>2021-12-12T10:12:21Z</time>
      </trkpt>
      <trkpt lat="43.64977" lon="3.78985">
        <ele>59.3</ele>
        <time>2021-12-12T10:12:31Z</time>
      </trkpt>
      <trkpt lat="43.65002" lon="3.78963">
        <ele>59.6</ele>
        <time>2021-12-12T10:12:41Z</time>
      </trkpt>
      <trkpt lat="43.65029" lon="3.78941">
        <ele>59.4</ele>
        <time>2021-12-12T10:12:51Z</time>
      </trkpt>
      <trkpt lat="43.65052" lon="3.78921">
        <ele>59.3</ele>
        <time>2021-12-12T10:13:01Z</time>
      </trkpt>
      <trkpt lat="43.65076" lon="3.78935">
        <ele>57.1</ele>
        <time>2021-12-12T10:13:11Z</time>
      </trkpt>
      <trkpt lat="43.65093" lon="3.78909">
        <ele>57.9</ele>
        <time>2021-12-12T10:13:21Z</time>
      </trkpt>
      <trkpt lat="43.65115" lon="3.78884">
        <ele>58.2</ele>
        <time>2021-12-12T10:13:31Z</time>
      </trkpt>
      <trkpt lat="43.65138" lon="3.78866">
        <ele>58.7</ele>
        <time>2021-12-12T10:13:41Z</time>
      </trkpt>
      <trkpt lat="43.65146" lon="3.7884">
        <ele>60.2</ele>
        <time>2021-12-12T10:13:51Z</time>
      </trkpt>
      <trkpt lat="43.65148" lon="3.78819">
        <ele>61.7</ele>
        <time>2021-12-12T10:14:01Z</time>
      </trkpt>
      <trkpt lat="43.6517" lon="3.78801">
        <ele>62.3</ele>
        <time>2021-12-12T10:14:21Z</time>
      </trkpt>
      <trkpt lat="43.65198" lon="3.78782">
        <ele>61.6</ele>
        <time>2021-12-12T10:14:41Z</time>
      </trkpt>
      <trkpt lat="43.65219" lon="3.78751">
        <ele>62.1</ele>
        <time>2021-12-12T10:14:51Z</time>
      </trkpt>
      <trkpt lat="43.65244" lon="3.78731">
        <ele>63.6</ele>
        <time>2021-12-12T10:15:01Z</time>
      </trkpt>
      <trkpt lat="43.65275" lon="3.78717">
        <ele>64.2</ele>
        <time>2021-12-12T10:15:11Z</time>
      </trkpt>
      <trkpt lat="43.6531" lon="3.78697">
        <ele>64.9</ele>
        <time>2021-12-12T10:15:21Z</time>
      </trkpt>
      <trkpt lat="43.65344" lon="3.78668">
        <ele>64.2</ele>
        <time>2021-12-12T10:15:31Z</time>
      </trkpt>
      <trkpt lat="43.65397" lon="3.78639">
        <ele>60.7</ele>
        <time>2021-12-12T10:15:41Z</time>
      </trkpt>
      <trkpt lat="43.65435" lon="3.78591">
        <ele>61.4</ele>
        <time>2021-12-12T10:15:51Z</time>
      </trkpt>
      <trkpt lat="43.65429" lon="3.78543">
        <ele>62.8</ele>
        <time>2021-12-12T10:16:01Z</time>
      </trkpt>
      <trkpt lat="43.65437" lon="3.78494">
        <ele>64.1</ele>
        <time>2021-12-12T10:16:11Z</time>
      </trkpt>
      <trkpt lat="43.65454" lon="3.78451">
        <ele>65.5</ele>
        <time>2021-12-12T10:16:21Z</time>
      </trkpt>
      <trkpt lat="43.65474" lon="3.78414">
        <ele>67.3</ele>
        <time>2021-12-12T10:16:31Z</time>
      </trkpt>
      <trkpt lat="43.65492" lon="3.78386">
        <ele>69.8</ele>
        <time>2021-12-12T10:16:41Z</time>
      </trkpt>
      <trkpt lat="43.65507" lon="3.78362">
        <ele>70.6</ele>
        <time>2021-12-12T10:16:51Z</time>
      </trkpt>
      <trkpt lat="43.65526" lon="3.78351">
        <ele>71.8</ele>
        <time>2021-12-12T10:17:01Z</time>
      </trkpt>
      <trkpt lat="43.65537" lon="3.78328">
        <ele>72.2</ele>
        <time>2021-12-12T10:17:11Z</time>
      </trkpt>
      <trkpt lat="43.65552" lon="3.78302">
        <ele>72.9</ele>
        <time>2021-12-12T10:17:21Z</time>
      </trkpt>
      <trkpt lat="43.65565" lon="3.78274">
        <ele>75.1</ele>
        <time>2021-12-12T10:17:31Z</time>
      </trkpt>
      <trkpt lat="43.65567" lon="3.78239">
        <ele>75.8</ele>
        <time>2021-12-12T10:17:41Z</time>
      </trkpt>
      <trkpt lat="43.65567" lon="3.78206">
        <ele>77.4</ele>
        <time>2021-12-12T10:17:51Z</time>
      </trkpt>
      <trkpt lat="43.65562" lon="3.78174">
        <ele>77.8</ele>
        <time>2021-12-12T10:18:01Z</time>
      </trkpt>
      <trkpt lat="43.65546" lon="3.78144">
        <ele>78.2</ele>
        <time>2021-12-12T10:18:11Z</time>
      </trkpt>
      <trkpt lat="43.65539" lon="3.78115">
        <ele>79.4</ele>
        <time>2021-12-12T10:18:21Z</time>
      </trkpt>
      <trkpt lat="43.65538" lon="3.78061">
        <ele>76.3</ele>
        <time>2021-12-12T10:18:31Z</time>
      </trkpt>
      <trkpt lat="43.65523" lon="3.78003">
        <ele>74.2</ele>
        <time>2021-12-12T10:18:41Z</time>
      </trkpt>
      <trkpt lat="43.65493" lon="3.77971">
        <ele>72</ele>
        <time>2021-12-12T10:18:51Z</time>
      </trkpt>
      <trkpt lat="43.65491" lon="3.77928">
        <ele>72.2</ele>
        <time>2021-12-12T10:19:01Z</time>
      </trkpt>
      <trkpt lat="43.65513" lon="3.77906">
        <ele>73.4</ele>
        <time>2021-12-12T10:19:11Z</time>
      </trkpt>
      <trkpt lat="43.65538" lon="3.77884">
        <ele>74.5</ele>
        <time>2021-12-12T10:19:21Z</time>
      </trkpt>
      <trkpt lat="43.65568" lon="3.77875">
        <ele>75.7</ele>
        <time>2021-12-12T10:19:31Z</time>
      </trkpt>
      <trkpt lat="43.65588" lon="3.77853">
        <ele>76.9</ele>
        <time>2021-12-12T10:19:41Z</time>
      </trkpt>
      <trkpt lat="43.65605" lon="3.77829">
        <ele>78.7</ele>
        <time>2021-12-12T10:19:51Z</time>
      </trkpt>
      <trkpt lat="43.6562" lon="3.77803">
        <ele>80.5</ele>
        <time>2021-12-12T10:20:01Z</time>
      </trkpt>
      <trkpt lat="43.65629" lon="3.77774">
        <ele>81.2</ele>
        <time>2021-12-12T10:20:11Z</time>
      </trkpt>
      <trkpt lat="43.65638" lon="3.77745">
        <ele>81.5</ele>
        <time>2021-12-12T10:20:21Z</time>
      </trkpt>
      <trkpt lat="43.65645" lon="3.77721">
        <ele>82.6</ele>
        <time>2021-12-12T10:20:31Z</time>
      </trkpt>
      <trkpt lat="43.65651" lon="3.77697">
        <ele>83.5</ele>
        <time>2021-12-12T10:20:41Z</time>
      </trkpt>
      <trkpt lat="43.65655" lon="3.7767">
        <ele>85.4</ele>
        <time>2021-12-12T10:20:51Z</time>
      </trkpt>
      <trkpt lat="43.65664" lon="3.7764">
        <ele>85.4</ele>
        <time>2021-12-12T10:21:01Z</time>
      </trkpt>
      <trkpt lat="43.65672" lon="3.77614">
        <ele>86.7</ele>
        <time>2021-12-12T10:21:11Z</time>
      </trkpt>
      <trkpt lat="43.65681" lon="3.77586">
        <ele>88.2</ele>
        <time>2021-12-12T10:21:21Z</time>
      </trkpt>
      <trkpt lat="43.65691" lon="3.77557">
        <ele>88.5</ele>
        <time>2021-12-12T10:21:31Z</time>
      </trkpt>
      <trkpt lat="43.65704" lon="3.77528">
        <ele>89.7</ele>
        <time>2021-12-12T10:21:41Z</time>
      </trkpt>
      <trkpt lat="43.65717" lon="3.77499">
        <ele>90.8</ele>
        <time>2021-12-12T10:21:51Z</time>
      </trkpt>
      <trkpt lat="43.65729" lon="3.77475">
        <ele>91.2</ele>
        <time>2021-12-12T10:22:01Z</time>
      </trkpt>
      <trkpt lat="43.65748" lon="3.77472">
        <ele>91.9</ele>
        <time>2021-12-12T10:22:11Z</time>
      </trkpt>
      <trkpt lat="43.65765" lon="3.77472">
        <ele>93.6</ele>
        <time>2021-12-12T10:22:21Z</time>
      </trkpt>
      <trkpt lat="43.6578" lon="3.77472">
        <ele>95.3</ele>
        <time>2021-12-12T10:22:31Z</time>
      </trkpt>
      <trkpt lat="43.65795" lon="3.77474">
        <ele>97.6</ele>
        <time>2021-12-12T10:22:41Z</time>
      </trkpt>
      <trkpt lat="43.65794" lon="3.77454">
        <ele>98.4</ele>
        <time>2021-12-12T10:22:51Z</time>
      </trkpt>
      <trkpt lat="43.65795" lon="3.77436">
        <ele>99.4</ele>
        <time>2021-12-12T10:23:01Z</time>
      </trkpt>
      <trkpt lat="43.65804" lon="3.77421">
        <ele>101.6</ele>
        <time>2021-12-12T10:23:11Z</time>
      </trkpt>
      <trkpt lat="43.65811" lon="3.77406">
        <ele>102.6</ele>
        <time>2021-12-12T10:23:21Z</time>
      </trkpt>
      <trkpt lat="43.65817" lon="3.77386">
        <ele>103.4</ele>
        <time>2021-12-12T10:23:31Z</time>
      </trkpt>
      <trkpt lat="43.65819" lon="3.77352">
        <ele>103.1</ele>
        <time>2021-12-12T10:23:41Z</time>
      </trkpt>
      <trkpt lat="43.65821" lon="3.77325">
        <ele>103.9</ele>
        <time>2021-12-12T10:23:51Z</time>
      </trkpt>
      <trkpt lat="43.65828" lon="3.77292">
        <ele>104.8</ele>
        <time>2021-12-12T10:24:01Z</time>
      </trkpt>
      <trkpt lat="43.65835" lon="3.77262">
        <ele>105</ele>
        <time>2021-12-12T10:24:11Z</time>
      </trkpt>
      <trkpt lat="43.65825" lon="3.77241">
        <ele>105.8</ele>
        <time>2021-12-12T10:24:21Z</time>
      </trkpt>
      <trkpt lat="43.65813" lon="3.77219">
        <ele>107</ele>
        <time>2021-12-12T10:24:31Z</time>
      </trkpt>
      <trkpt lat="43.6581" lon="3.77192">
        <ele>108.3</ele>
        <time>2021-12-12T10:24:41Z</time>
      </trkpt>
      <trkpt lat="43.65814" lon="3.77163">
        <ele>108</ele>
        <time>2021-12-12T10:24:51Z</time>
      </trkpt>
      <trkpt lat="43.65814" lon="3.77127">
        <ele>107.7</ele>
        <time>2021-12-12T10:25:01Z</time>
      </trkpt>
      <trkpt lat="43.65808" lon="3.77085">
        <ele>107.5</ele>
        <time>2021-12-12T10:25:11Z</time>
      </trkpt>
      <trkpt lat="43.65804" lon="3.77046">
        <ele>107.9</ele>
        <time>2021-12-12T10:25:21Z</time>
      </trkpt>
      <trkpt lat="43.65802" lon="3.7701">
        <ele>107.2</ele>
        <time>2021-12-12T10:25:31Z</time>
      </trkpt>
      <trkpt lat="43.65796" lon="3.76982">
        <ele>104.5</ele>
        <time>2021-12-12T10:25:41Z</time>
      </trkpt>
      <trkpt lat="43.65771" lon="3.76956">
        <ele>104.3</ele>
        <time>2021-12-12T10:25:51Z</time>
      </trkpt>
      <trkpt lat="43.65745" lon="3.7693">
        <ele>103.3</ele>
        <time>2021-12-12T10:26:01Z</time>
      </trkpt>
      <trkpt lat="43.65718" lon="3.76922">
        <ele>102.3</ele>
        <time>2021-12-12T10:26:11Z</time>
      </trkpt>
      <trkpt lat="43.6569" lon="3.76916">
        <ele>99.5</ele>
        <time>2021-12-12T10:26:21Z</time>
      </trkpt>
      <trkpt lat="43.65661" lon="3.76917">
        <ele>96.8</ele>
        <time>2021-12-12T10:26:31Z</time>
      </trkpt>
      <trkpt lat="43.65632" lon="3.7692">
        <ele>95.5</ele>
        <time>2021-12-12T10:26:41Z</time>
      </trkpt>
      <trkpt lat="43.65604" lon="3.76933">
        <ele>94.3</ele>
        <time>2021-12-12T10:26:51Z</time>
      </trkpt>
      <trkpt lat="43.65579" lon="3.76937">
        <ele>93.9</ele>
        <time>2021-12-12T10:27:01Z</time>
      </trkpt>
      <trkpt lat="43.65555" lon="3.76946">
        <ele>95.1</ele>
        <time>2021-12-12T10:27:11Z</time>
      </trkpt>
      <trkpt lat="43.65529" lon="3.76939">
        <ele>95</ele>
        <time>2021-12-12T10:27:21Z</time>
      </trkpt>
      <trkpt lat="43.65503" lon="3.7693">
        <ele>96.3</ele>
        <time>2021-12-12T10:27:31Z</time>
      </trkpt>
      <trkpt lat="43.65483" lon="3.76923">
        <ele>96.8</ele>
        <time>2021-12-12T10:27:41Z</time>
      </trkpt>
      <trkpt lat="43.65468" lon="3.76909">
        <ele>97.3</ele>
        <time>2021-12-12T10:27:51Z</time>
      </trkpt>
      <trkpt lat="43.65464" lon="3.76888">
        <ele>97.3</ele>
        <time>2021-12-12T10:33:41Z</time>
      </trkpt>
      <trkpt lat="43.65457" lon="3.76869">
        <ele>98.3</ele>
        <time>2021-12-12T10:34:01Z</time>
      </trkpt>
      <trkpt lat="43.65438" lon="3.76854">
        <ele>99.5</ele>
        <time>2021-12-12T10:34:11Z</time>
      </trkpt>
      <trkpt lat="43.65422" lon="3.76841">
        <ele>100.5</ele>
        <time>2021-12-12T10:34:21Z</time>
      </trkpt>
      <trkpt lat="43.65415" lon="3.7682">
        <ele>101.5</ele>
        <time>2021-12-12T10:34:31Z</time>
      </trkpt>
      <trkpt lat="43.65422" lon="3.76802">
        <ele>101.9</ele>
        <time>2021-12-12T10:34:41Z</time>
      </trkpt>
      <trkpt lat="43.65435" lon="3.76777">
        <ele>101.7</ele>
        <time>2021-12-12T10:34:51Z</time>
      </trkpt>
      <trkpt lat="43.6545" lon="3.7674">
        <ele>102.5</ele>
        <time>2021-12-12T10:35:01Z</time>
      </trkpt>
      <trkpt lat="43.65453" lon="3.76714">
        <ele>104.6</ele>
        <time>2021-12-12T10:35:11Z</time>
      </trkpt>
      <trkpt lat="43.65456" lon="3.76698">
        <ele>106.2</ele>
        <time>2021-12-12T10:35:21Z</time>
      </trkpt>
      <trkpt lat="43.65458" lon="3.76683">
        <ele>107.5</ele>
        <time>2021-12-12T10:35:31Z</time>
      </trkpt>
      <trkpt lat="43.65461" lon="3.76666">
        <ele>108.8</ele>
        <time>2021-12-12T10:35:41Z</time>
      </trkpt>
      <trkpt lat="43.6547" lon="3.76642">
        <ele>109.1</ele>
        <time>2021-12-12T10:35:51Z</time>
      </trkpt>
      <trkpt lat="43.65473" lon="3.76621">
        <ele>109.5</ele>
        <time>2021-12-12T10:36:01Z</time>
      </trkpt>
      <trkpt lat="43.65479" lon="3.76607">
        <ele>109.2</ele>
        <time>2021-12-12T10:36:11Z</time>
      </trkpt>
      <trkpt lat="43.65482" lon="3.76592">
        <ele>109.3</ele>
        <time>2021-12-12T10:36:21Z</time>
      </trkpt>
      <trkpt lat="43.65486" lon="3.76582">
        <ele>109.1</ele>
        <time>2021-12-12T10:36:41Z</time>
      </trkpt>
      <trkpt lat="43.65495" lon="3.76555">
        <ele>108.1</ele>
        <time>2021-12-12T10:36:51Z</time>
      </trkpt>
      <trkpt lat="43.65505" lon="3.7652">
        <ele>108.7</ele>
        <time>2021-12-12T10:37:01Z</time>
      </trkpt>
      <trkpt lat="43.655" lon="3.76513">
        <ele>110</ele>
        <time>2021-12-12T10:37:11Z</time>
      </trkpt>
      <trkpt lat="43.65489" lon="3.76526">
        <ele>112</ele>
        <time>2021-12-12T10:37:21Z</time>
      </trkpt>
      <trkpt lat="43.65482" lon="3.76531">
        <ele>113</ele>
        <time>2021-12-12T10:37:31Z</time>
      </trkpt>
      <trkpt lat="43.65471" lon="3.76536">
        <ele>114.6</ele>
        <time>2021-12-12T10:37:41Z</time>
      </trkpt>
      <trkpt lat="43.65457" lon="3.76533">
        <ele>117.4</ele>
        <time>2021-12-12T10:37:51Z</time>
      </trkpt>
      <trkpt lat="43.65445" lon="3.76533">
        <ele>119.5</ele>
        <time>2021-12-12T10:38:01Z</time>
      </trkpt>
      <trkpt lat="43.65434" lon="3.76542">
        <ele>119.9</ele>
        <time>2021-12-12T10:38:11Z</time>
      </trkpt>
      <trkpt lat="43.65432" lon="3.76526">
        <ele>120.8</ele>
        <time>2021-12-12T10:38:21Z</time>
      </trkpt>
      <trkpt lat="43.65427" lon="3.76489">
        <ele>119.2</ele>
        <time>2021-12-12T10:38:31Z</time>
      </trkpt>
      <trkpt lat="43.65427" lon="3.76445">
        <ele>114.3</ele>
        <time>2021-12-12T10:38:41Z</time>
      </trkpt>
      <trkpt lat="43.65435" lon="3.7639">
        <ele>111.7</ele>
        <time>2021-12-12T10:38:51Z</time>
      </trkpt>
      <trkpt lat="43.65416" lon="3.7636">
        <ele>115</ele>
        <time>2021-12-12T10:39:01Z</time>
      </trkpt>
      <trkpt lat="43.65381" lon="3.76351">
        <ele>113</ele>
        <time>2021-12-12T10:39:11Z</time>
      </trkpt>
      <trkpt lat="43.65342" lon="3.76323">
        <ele>109.7</ele>
        <time>2021-12-12T10:39:21Z</time>
      </trkpt>
      <trkpt lat="43.65327" lon="3.76306">
        <ele>112.1</ele>
        <time>2021-12-12T10:39:31Z</time>
      </trkpt>
      <trkpt lat="43.65322" lon="3.76287">
        <ele>114.4</ele>
        <time>2021-12-12T10:39:41Z</time>
      </trkpt>
      <trkpt lat="43.65324" lon="3.76264">
        <ele>114.8</ele>
        <time>2021-12-12T10:39:51Z</time>
      </trkpt>
      <trkpt lat="43.65311" lon="3.76252">
        <ele>116.5</ele>
        <time>2021-12-12T10:40:01Z</time>
      </trkpt>
      <trkpt lat="43.65308" lon="3.76235">
        <ele>115.7</ele>
        <time>2021-12-12T10:40:11Z</time>
      </trkpt>
      <trkpt lat="43.65311" lon="3.76211">
        <ele>113.9</ele>
        <time>2021-12-12T10:40:41Z</time>
      </trkpt>
      <trkpt lat="43.65301" lon="3.76237">
        <ele>116.3</ele>
        <time>2021-12-12T10:41:11Z</time>
      </trkpt>
      <trkpt lat="43.65293" lon="3.76254">
        <ele>118</ele>
        <time>2021-12-12T10:41:31Z</time>
      </trkpt>
      <trkpt lat="43.65276" lon="3.76258">
        <ele>119.3</ele>
        <time>2021-12-12T10:41:41Z</time>
      </trkpt>
      <trkpt lat="43.65262" lon="3.76271">
        <ele>120.2</ele>
        <time>2021-12-12T10:41:51Z</time>
      </trkpt>
      <trkpt lat="43.65248" lon="3.76283">
        <ele>121.4</ele>
        <time>2021-12-12T10:42:01Z</time>
      </trkpt>
      <trkpt lat="43.65235" lon="3.76292">
        <ele>123.1</ele>
        <time>2021-12-12T10:42:11Z</time>
      </trkpt>
      <trkpt lat="43.65224" lon="3.76302">
        <ele>124.7</ele>
        <time>2021-12-12T10:42:21Z</time>
      </trkpt>
      <trkpt lat="43.6522" lon="3.76317">
        <ele>125.7</ele>
        <time>2021-12-12T10:42:31Z</time>
      </trkpt>
      <trkpt lat="43.65221" lon="3.76337">
        <ele>126</ele>
        <time>2021-12-12T10:42:41Z</time>
      </trkpt>
      <trkpt lat="43.65208" lon="3.76338">
        <ele>127.5</ele>
        <time>2021-12-12T10:42:51Z</time>
      </trkpt>
      <trkpt lat="43.65197" lon="3.76345">
        <ele>129.1</ele>
        <time>2021-12-12T10:43:01Z</time>
      </trkpt>
      <trkpt lat="43.65185" lon="3.76357">
        <ele>130.6</ele>
        <time>2021-12-12T10:43:11Z</time>
      </trkpt>
      <trkpt lat="43.65175" lon="3.76365">
        <ele>131.6</ele>
        <time>2021-12-12T10:43:21Z</time>
      </trkpt>
      <trkpt lat="43.65164" lon="3.76376">
        <ele>133.3</ele>
        <time>2021-12-12T10:43:31Z</time>
      </trkpt>
      <trkpt lat="43.65146" lon="3.76368">
        <ele>134</ele>
        <time>2021-12-12T10:43:51Z</time>
      </trkpt>
      <trkpt lat="43.65137" lon="3.76386">
        <ele>135.6</ele>
        <time>2021-12-12T10:44:11Z</time>
      </trkpt>
      <trkpt lat="43.65129" lon="3.76407">
        <ele>136.3</ele>
        <time>2021-12-12T10:44:21Z</time>
      </trkpt>
      <trkpt lat="43.65113" lon="3.76439">
        <ele>140</ele>
        <time>2021-12-12T10:44:51Z</time>
      </trkpt>
      <trkpt lat="43.65099" lon="3.76454">
        <ele>138.8</ele>
        <time>2021-12-12T10:45:11Z</time>
      </trkpt>
      <trkpt lat="43.65089" lon="3.76469">
        <ele>138.3</ele>
        <time>2021-12-12T10:45:21Z</time>
      </trkpt>
      <trkpt lat="43.65095" lon="3.76489">
        <ele>139.7</ele>
        <time>2021-12-12T10:45:31Z</time>
      </trkpt>
      <trkpt lat="43.65094" lon="3.76511">
        <ele>140.5</ele>
        <time>2021-12-12T10:45:41Z</time>
      </trkpt>
      <trkpt lat="43.65093" lon="3.76531">
        <ele>141.5</ele>
        <time>2021-12-12T10:45:51Z</time>
      </trkpt>
      <trkpt lat="43.65089" lon="3.76547">
        <ele>142.8</ele>
        <time>2021-12-12T10:46:01Z</time>
      </trkpt>
      <trkpt lat="43.6508" lon="3.76565">
        <ele>143.7</ele>
        <time>2021-12-12T10:46:11Z</time>
      </trkpt>
      <trkpt lat="43.65076" lon="3.76582">
        <ele>144.1</ele>
        <time>2021-12-12T10:46:21Z</time>
      </trkpt>
      <trkpt lat="43.65075" lon="3.76602">
        <ele>146</ele>
        <time>2021-12-12T10:46:31Z</time>
      </trkpt>
      <trkpt lat="43.65074" lon="3.76621">
        <ele>147.7</ele>
        <time>2021-12-12T10:46:41Z</time>
      </trkpt>
      <trkpt lat="43.65072" lon="3.76644">
        <ele>149.1</ele>
        <time>2021-12-12T10:46:51Z</time>
      </trkpt>
      <trkpt lat="43.6507" lon="3.76672">
        <ele>149.3</ele>
        <time>2021-12-12T10:47:01Z</time>
      </trkpt>
      <trkpt lat="43.65076" lon="3.76692">
        <ele>148.4</ele>
        <time>2021-12-12T10:47:11Z</time>
      </trkpt>
      <trkpt lat="43.65066" lon="3.76709">
        <ele>148</ele>
        <time>2021-12-12T10:47:21Z</time>
      </trkpt>
      <trkpt lat="43.65078" lon="3.76694">
        <ele>148.2</ele>
        <time>2021-12-12T10:47:31Z</time>
      </trkpt>
      <trkpt lat="43.65093" lon="3.76678">
        <ele>148.2</ele>
        <time>2021-12-12T10:47:41Z</time>
      </trkpt>
      <trkpt lat="43.6511" lon="3.76663">
        <ele>147</ele>
        <time>2021-12-12T10:47:51Z</time>
      </trkpt>
      <trkpt lat="43.65113" lon="3.76689">
        <ele>147.9</ele>
        <time>2021-12-12T10:48:01Z</time>
      </trkpt>
      <trkpt lat="43.65118" lon="3.7672">
        <ele>149.2</ele>
        <time>2021-12-12T10:48:11Z</time>
      </trkpt>
      <trkpt lat="43.65116" lon="3.76759">
        <ele>147.6</ele>
        <time>2021-12-12T10:48:21Z</time>
      </trkpt>
      <trkpt lat="43.65118" lon="3.76806">
        <ele>144.7</ele>
        <time>2021-12-12T10:48:31Z</time>
      </trkpt>
      <trkpt lat="43.65118" lon="3.7684">
        <ele>143.4</ele>
        <time>2021-12-12T10:48:51Z</time>
      </trkpt>
      <trkpt lat="43.65125" lon="3.76883">
        <ele>142.2</ele>
        <time>2021-12-12T10:49:11Z</time>
      </trkpt>
      <trkpt lat="43.65129" lon="3.76923">
        <ele>140.2</ele>
        <time>2021-12-12T10:49:21Z</time>
      </trkpt>
      <trkpt lat="43.65135" lon="3.76961">
        <ele>137.2</ele>
        <time>2021-12-12T10:49:31Z</time>
      </trkpt>
      <trkpt lat="43.65151" lon="3.76974">
        <ele>137.1</ele>
        <time>2021-12-12T10:49:41Z</time>
      </trkpt>
      <trkpt lat="43.65175" lon="3.76976">
        <ele>139.2</ele>
        <time>2021-12-12T10:49:51Z</time>
      </trkpt>
      <trkpt lat="43.65185" lon="3.76963">
        <ele>141.1</ele>
        <time>2021-12-12T10:50:01Z</time>
      </trkpt>
      <trkpt lat="43.6516" lon="3.76974">
        <ele>138.1</ele>
        <time>2021-12-12T10:50:21Z</time>
      </trkpt>
      <trkpt lat="43.65137" lon="3.76982">
        <ele>134.6</ele>
        <time>2021-12-12T10:50:41Z</time>
      </trkpt>
      <trkpt lat="43.65122" lon="3.76996">
        <ele>133.6</ele>
        <time>2021-12-12T10:50:51Z</time>
      </trkpt>
      <trkpt lat="43.65113" lon="3.76984">
        <ele>135.1</ele>
        <time>2021-12-12T10:51:01Z</time>
      </trkpt>
      <trkpt lat="43.65104" lon="3.76996">
        <ele>134.3</ele>
        <time>2021-12-12T10:51:11Z</time>
      </trkpt>
      <trkpt lat="43.651" lon="3.77028">
        <ele>132.6</ele>
        <time>2021-12-12T10:51:21Z</time>
      </trkpt>
      <trkpt lat="43.65099" lon="3.77069">
        <ele>128.8</ele>
        <time>2021-12-12T10:51:31Z</time>
      </trkpt>
      <trkpt lat="43.65117" lon="3.77084">
        <ele>126</ele>
        <time>2021-12-12T10:51:41Z</time>
      </trkpt>
      <trkpt lat="43.65144" lon="3.77085">
        <ele>123</ele>
        <time>2021-12-12T10:51:51Z</time>
      </trkpt>
      <trkpt lat="43.65171" lon="3.77095">
        <ele>122.7</ele>
        <time>2021-12-12T10:52:01Z</time>
      </trkpt>
      <trkpt lat="43.65188" lon="3.77105">
        <ele>122.1</ele>
        <time>2021-12-12T10:52:11Z</time>
      </trkpt>
      <trkpt lat="43.65198" lon="3.77138">
        <ele>120.9</ele>
        <time>2021-12-12T10:53:01Z</time>
      </trkpt>
      <trkpt lat="43.65212" lon="3.772">
        <ele>117.9</ele>
        <time>2021-12-12T10:53:21Z</time>
      </trkpt>
      <trkpt lat="43.65228" lon="3.77256">
        <ele>118.6</ele>
        <time>2021-12-12T10:53:31Z</time>
      </trkpt>
      <trkpt lat="43.65241" lon="3.77288">
        <ele>121.5</ele>
        <time>2021-12-12T10:53:41Z</time>
      </trkpt>
      <trkpt lat="43.65255" lon="3.77306">
        <ele>124.7</ele>
        <time>2021-12-12T10:53:51Z</time>
      </trkpt>
      <trkpt lat="43.65269" lon="3.77324">
        <ele>125.2</ele>
        <time>2021-12-12T10:54:01Z</time>
      </trkpt>
      <trkpt lat="43.65273" lon="3.77346">
        <ele>126.1</ele>
        <time>2021-12-12T10:54:11Z</time>
      </trkpt>
      <trkpt lat="43.6527" lon="3.77362">
        <ele>127.2</ele>
        <time>2021-12-12T10:54:21Z</time>
      </trkpt>
      <trkpt lat="43.65263" lon="3.77376">
        <ele>129.5</ele>
        <time>2021-12-12T10:54:31Z</time>
      </trkpt>
      <trkpt lat="43.65262" lon="3.77393">
        <ele>131.3</ele>
        <time>2021-12-12T10:54:41Z</time>
      </trkpt>
      <trkpt lat="43.65254" lon="3.77409">
        <ele>133.9</ele>
        <time>2021-12-12T10:54:51Z</time>
      </trkpt>
      <trkpt lat="43.65251" lon="3.77425">
        <ele>135.4</ele>
        <time>2021-12-12T10:55:01Z</time>
      </trkpt>
      <trkpt lat="43.65245" lon="3.77443">
        <ele>136</ele>
        <time>2021-12-12T10:55:11Z</time>
      </trkpt>
      <trkpt lat="43.65236" lon="3.77464">
        <ele>133.4</ele>
        <time>2021-12-12T10:55:21Z</time>
      </trkpt>
      <trkpt lat="43.65219" lon="3.77483">
        <ele>127.7</ele>
        <time>2021-12-12T10:55:31Z</time>
      </trkpt>
      <trkpt lat="43.65203" lon="3.77513">
        <ele>120.7</ele>
        <time>2021-12-12T10:55:41Z</time>
      </trkpt>
      <trkpt lat="43.65186" lon="3.7754">
        <ele>117</ele>
        <time>2021-12-12T10:55:51Z</time>
      </trkpt>
      <trkpt lat="43.65163" lon="3.77569">
        <ele>113.8</ele>
        <time>2021-12-12T10:56:01Z</time>
      </trkpt>
      <trkpt lat="43.65153" lon="3.77609">
        <ele>109.6</ele>
        <time>2021-12-12T10:56:11Z</time>
      </trkpt>
      <trkpt lat="43.65135" lon="3.77638">
        <ele>105.4</ele>
        <time>2021-12-12T10:56:21Z</time>
      </trkpt>
      <trkpt lat="43.65123" lon="3.77661">
        <ele>100.1</ele>
        <time>2021-12-12T10:56:31Z</time>
      </trkpt>
      <trkpt lat="43.65117" lon="3.77712">
        <ele>91.3</ele>
        <time>2021-12-12T10:56:41Z</time>
      </trkpt>
      <trkpt lat="43.65103" lon="3.77749">
        <ele>85.5</ele>
        <time>2021-12-12T10:56:51Z</time>
      </trkpt>
      <trkpt lat="43.65111" lon="3.77767">
        <ele>84.2</ele>
        <time>2021-12-12T10:57:01Z</time>
      </trkpt>
      <trkpt lat="43.65128" lon="3.77781">
        <ele>85.1</ele>
        <time>2021-12-12T10:57:21Z</time>
      </trkpt>
      <trkpt lat="43.65138" lon="3.77798">
        <ele>84.1</ele>
        <time>2021-12-12T10:57:31Z</time>
      </trkpt>
      <trkpt lat="43.65145" lon="3.77839">
        <ele>82.2</ele>
        <time>2021-12-12T10:57:41Z</time>
      </trkpt>
      <trkpt lat="43.6515" lon="3.77877">
        <ele>81.2</ele>
        <time>2021-12-12T10:57:51Z</time>
      </trkpt>
      <trkpt lat="43.65164" lon="3.77921">
        <ele>80.1</ele>
        <time>2021-12-12T10:58:01Z</time>
      </trkpt>
      <trkpt lat="43.6517" lon="3.77966">
        <ele>79.8</ele>
        <time>2021-12-12T10:58:11Z</time>
      </trkpt>
      <trkpt lat="43.65175" lon="3.78005">
        <ele>81.8</ele>
        <time>2021-12-12T10:58:21Z</time>
      </trkpt>
      <trkpt lat="43.65176" lon="3.78028">
        <ele>83</ele>
        <time>2021-12-12T10:58:31Z</time>
      </trkpt>
      <trkpt lat="43.65163" lon="3.78035">
        <ele>85.2</ele>
        <time>2021-12-12T10:58:41Z</time>
      </trkpt>
      <trkpt lat="43.65141" lon="3.78038">
        <ele>86.6</ele>
        <time>2021-12-12T10:58:51Z</time>
      </trkpt>
      <trkpt lat="43.65125" lon="3.78046">
        <ele>88.7</ele>
        <time>2021-12-12T10:59:01Z</time>
      </trkpt>
      <trkpt lat="43.65115" lon="3.7804">
        <ele>89.6</ele>
        <time>2021-12-12T10:59:11Z</time>
      </trkpt>
      <trkpt lat="43.65111" lon="3.7802">
        <ele>90.3</ele>
        <time>2021-12-12T10:59:21Z</time>
      </trkpt>
      <trkpt lat="43.65107" lon="3.78004">
        <ele>91.9</ele>
        <time>2021-12-12T10:59:31Z</time>
      </trkpt>
      <trkpt lat="43.65103" lon="3.77987">
        <ele>93.2</ele>
        <time>2021-12-12T10:59:41Z</time>
      </trkpt>
      <trkpt lat="43.65096" lon="3.77969">
        <ele>95.3</ele>
        <time>2021-12-12T10:59:51Z</time>
      </trkpt>
      <trkpt lat="43.65093" lon="3.77949">
        <ele>95.9</ele>
        <time>2021-12-12T11:00:01Z</time>
      </trkpt>
      <trkpt lat="43.65089" lon="3.77929">
        <ele>96.3</ele>
        <time>2021-12-12T11:00:11Z</time>
      </trkpt>
      <trkpt lat="43.65083" lon="3.77893">
        <ele>96.3</ele>
        <time>2021-12-12T11:00:21Z</time>
      </trkpt>
      <trkpt lat="43.65077" lon="3.7787">
        <ele>98.5</ele>
        <time>2021-12-12T11:00:31Z</time>
      </trkpt>
      <trkpt lat="43.65071" lon="3.77852">
        <ele>99.9</ele>
        <time>2021-12-12T11:00:41Z</time>
      </trkpt>
      <trkpt lat="43.65063" lon="3.77833">
        <ele>100.6</ele>
        <time>2021-12-12T11:00:51Z</time>
      </trkpt>
      <trkpt lat="43.65054" lon="3.77811">
        <ele>101.2</ele>
        <time>2021-12-12T11:01:01Z</time>
      </trkpt>
      <trkpt lat="43.65045" lon="3.77791">
        <ele>102</ele>
        <time>2021-12-12T11:01:11Z</time>
      </trkpt>
      <trkpt lat="43.65033" lon="3.77781">
        <ele>104.1</ele>
        <time>2021-12-12T11:02:01Z</time>
      </trkpt>
      <trkpt lat="43.65009" lon="3.77772">
        <ele>104.9</ele>
        <time>2021-12-12T11:02:21Z</time>
      </trkpt>
      <trkpt lat="43.64986" lon="3.7777">
        <ele>106.4</ele>
        <time>2021-12-12T11:02:31Z</time>
      </trkpt>
      <trkpt lat="43.64964" lon="3.7777">
        <ele>108.1</ele>
        <time>2021-12-12T11:02:41Z</time>
      </trkpt>
      <trkpt lat="43.64938" lon="3.77767">
        <ele>108.7</ele>
        <time>2021-12-12T11:02:51Z</time>
      </trkpt>
      <trkpt lat="43.64916" lon="3.77765">
        <ele>109.8</ele>
        <time>2021-12-12T11:03:01Z</time>
      </trkpt>
      <trkpt lat="43.64894" lon="3.77761">
        <ele>109.8</ele>
        <time>2021-12-12T11:03:11Z</time>
      </trkpt>
      <trkpt lat="43.64867" lon="3.77758">
        <ele>110</ele>
        <time>2021-12-12T11:03:21Z</time>
      </trkpt>
      <trkpt lat="43.64841" lon="3.77765">
        <ele>110.4</ele>
        <time>2021-12-12T11:03:31Z</time>
      </trkpt>
      <trkpt lat="43.64816" lon="3.77752">
        <ele>109</ele>
        <time>2021-12-12T11:03:41Z</time>
      </trkpt>
      <trkpt lat="43.64792" lon="3.77745">
        <ele>110.1</ele>
        <time>2021-12-12T11:03:51Z</time>
      </trkpt>
      <trkpt lat="43.6477" lon="3.77741">
        <ele>112.2</ele>
        <time>2021-12-12T11:04:01Z</time>
      </trkpt>
      <trkpt lat="43.64751" lon="3.77734">
        <ele>113</ele>
        <time>2021-12-12T11:04:11Z</time>
      </trkpt>
      <trkpt lat="43.64728" lon="3.77722">
        <ele>113.4</ele>
        <time>2021-12-12T11:04:21Z</time>
      </trkpt>
      <trkpt lat="43.64719" lon="3.77714">
        <ele>114.7</ele>
        <time>2021-12-12T11:04:31Z</time>
      </trkpt>
      <trkpt lat="43.6471" lon="3.77703">
        <ele>117.4</ele>
        <time>2021-12-12T11:04:41Z</time>
      </trkpt>
      <trkpt lat="43.64703" lon="3.7769">
        <ele>119.4</ele>
        <time>2021-12-12T11:04:51Z</time>
      </trkpt>
      <trkpt lat="43.64695" lon="3.77672">
        <ele>119.6</ele>
        <time>2021-12-12T11:05:01Z</time>
      </trkpt>
      <trkpt lat="43.64681" lon="3.77655">
        <ele>120.5</ele>
        <time>2021-12-12T11:05:11Z</time>
      </trkpt>
      <trkpt lat="43.64667" lon="3.77641">
        <ele>121.3</ele>
        <time>2021-12-12T11:05:21Z</time>
      </trkpt>
      <trkpt lat="43.64646" lon="3.77633">
        <ele>122.2</ele>
        <time>2021-12-12T11:05:31Z</time>
      </trkpt>
      <trkpt lat="43.64621" lon="3.77623">
        <ele>122.2</ele>
        <time>2021-12-12T11:05:41Z</time>
      </trkpt>
      <trkpt lat="43.64599" lon="3.77626">
        <ele>123.8</ele>
        <time>2021-12-12T11:05:51Z</time>
      </trkpt>
      <trkpt lat="43.6458" lon="3.77634">
        <ele>125.8</ele>
        <time>2021-12-12T11:06:01Z</time>
      </trkpt>
      <trkpt lat="43.64563" lon="3.77641">
        <ele>127.8</ele>
        <time>2021-12-12T11:06:11Z</time>
      </trkpt>
      <trkpt lat="43.64551" lon="3.77653">
        <ele>130.3</ele>
        <time>2021-12-12T11:06:21Z</time>
      </trkpt>
      <trkpt lat="43.64541" lon="3.77668">
        <ele>132.7</ele>
        <time>2021-12-12T11:06:31Z</time>
      </trkpt>
      <trkpt lat="43.64534" lon="3.7768">
        <ele>134.1</ele>
        <time>2021-12-12T11:06:41Z</time>
      </trkpt>
      <trkpt lat="43.64523" lon="3.77689">
        <ele>134.7</ele>
        <time>2021-12-12T11:06:51Z</time>
      </trkpt>
      <trkpt lat="43.64518" lon="3.77709">
        <ele>134.5</ele>
        <time>2021-12-12T11:07:01Z</time>
      </trkpt>
      <trkpt lat="43.64512" lon="3.77737">
        <ele>133.6</ele>
        <time>2021-12-12T11:07:11Z</time>
      </trkpt>
      <trkpt lat="43.64497" lon="3.7778">
        <ele>130.8</ele>
        <time>2021-12-12T11:07:21Z</time>
      </trkpt>
      <trkpt lat="43.64504" lon="3.77838">
        <ele>129</ele>
        <time>2021-12-12T11:07:31Z</time>
      </trkpt>
      <trkpt lat="43.64535" lon="3.77873">
        <ele>128.4</ele>
        <time>2021-12-12T11:07:41Z</time>
      </trkpt>
      <trkpt lat="43.64552" lon="3.77927">
        <ele>126.5</ele>
        <time>2021-12-12T11:07:51Z</time>
      </trkpt>
      <trkpt lat="43.64564" lon="3.77987">
        <ele>125.9</ele>
        <time>2021-12-12T11:08:01Z</time>
      </trkpt>
      <trkpt lat="43.64574" lon="3.78049">
        <ele>125.7</ele>
        <time>2021-12-12T11:08:11Z</time>
      </trkpt>
      <trkpt lat="43.64588" lon="3.78111">
        <ele>125.2</ele>
        <time>2021-12-12T11:08:21Z</time>
      </trkpt>
      <trkpt lat="43.64605" lon="3.78173">
        <ele>124.8</ele>
        <time>2021-12-12T11:08:31Z</time>
      </trkpt>
      <trkpt lat="43.6462" lon="3.78234">
        <ele>124.5</ele>
        <time>2021-12-12T11:08:41Z</time>
      </trkpt>
      <trkpt lat="43.64639" lon="3.78291">
        <ele>124.5</ele>
        <time>2021-12-12T11:08:51Z</time>
      </trkpt>
      <trkpt lat="43.64661" lon="3.78343">
        <ele>124.8</ele>
        <time>2021-12-12T11:09:01Z</time>
      </trkpt>
      <trkpt lat="43.64683" lon="3.78318">
        <ele>125.9</ele>
        <time>2021-12-12T11:09:11Z</time>
      </trkpt>
      <trkpt lat="43.64704" lon="3.78301">
        <ele>127.9</ele>
        <time>2021-12-12T11:09:21Z</time>
      </trkpt>
      <trkpt lat="43.64722" lon="3.78284">
        <ele>129.8</ele>
        <time>2021-12-12T11:09:31Z</time>
      </trkpt>
      <trkpt lat="43.64738" lon="3.78268">
        <ele>130.9</ele>
        <time>2021-12-12T11:09:41Z</time>
      </trkpt>
      <trkpt lat="43.64752" lon="3.78249">
        <ele>132.2</ele>
        <time>2021-12-12T11:09:51Z</time>
      </trkpt>
      <trkpt lat="43.64767" lon="3.78264">
        <ele>132.7</ele>
        <time>2021-12-12T11:10:01Z</time>
      </trkpt>
      <trkpt lat="43.64779" lon="3.78306">
        <ele>132.1</ele>
        <time>2021-12-12T11:10:11Z</time>
      </trkpt>
      <trkpt lat="43.64799" lon="3.78347">
        <ele>131.8</ele>
        <time>2021-12-12T11:10:21Z</time>
      </trkpt>
      <trkpt lat="43.64824" lon="3.78397">
        <ele>130.4</ele>
        <time>2021-12-12T11:10:31Z</time>
      </trkpt>
      <trkpt lat="43.64842" lon="3.7844">
        <ele>129.5</ele>
        <time>2021-12-12T11:10:41Z</time>
      </trkpt>
      <trkpt lat="43.64865" lon="3.78482">
        <ele>129.2</ele>
        <time>2021-12-12T11:10:51Z</time>
      </trkpt>
      <trkpt lat="43.64893" lon="3.7851">
        <ele>129.1</ele>
        <time>2021-12-12T11:11:01Z</time>
      </trkpt>
      <trkpt lat="43.64916" lon="3.78538">
        <ele>130</ele>
        <time>2021-12-12T11:11:11Z</time>
      </trkpt>
      <trkpt lat="43.64937" lon="3.78564">
        <ele>128.8</ele>
        <time>2021-12-12T11:11:21Z</time>
      </trkpt>
      <trkpt lat="43.64956" lon="3.78557">
        <ele>125.6</ele>
        <time>2021-12-12T11:11:31Z</time>
      </trkpt>
      <trkpt lat="43.64972" lon="3.78544">
        <ele>120.4</ele>
        <time>2021-12-12T11:11:41Z</time>
      </trkpt>
      <trkpt lat="43.64982" lon="3.78518">
        <ele>113.7</ele>
        <time>2021-12-12T11:11:51Z</time>
      </trkpt>
      <trkpt lat="43.6499" lon="3.78505">
        <ele>109.3</ele>
        <time>2021-12-12T11:12:01Z</time>
      </trkpt>
      <trkpt lat="43.65003" lon="3.78505">
        <ele>104.6</ele>
        <time>2021-12-12T11:12:11Z</time>
      </trkpt>
      <trkpt lat="43.65021" lon="3.78503">
        <ele>97.8</ele>
        <time>2021-12-12T11:12:31Z</time>
      </trkpt>
      <trkpt lat="43.65035" lon="3.785">
        <ele>92.7</ele>
        <time>2021-12-12T11:12:51Z</time>
      </trkpt>
      <trkpt lat="43.65045" lon="3.78513">
        <ele>90.5</ele>
        <time>2021-12-12T11:13:01Z</time>
      </trkpt>
      <trkpt lat="43.65056" lon="3.7854">
        <ele>88.3</ele>
        <time>2021-12-12T11:13:11Z</time>
      </trkpt>
      <trkpt lat="43.65066" lon="3.78568">
        <ele>86.4</ele>
        <time>2021-12-12T11:13:21Z</time>
      </trkpt>
      <trkpt lat="43.65074" lon="3.78611">
        <ele>85.7</ele>
        <time>2021-12-12T11:13:31Z</time>
      </trkpt>
      <trkpt lat="43.6507" lon="3.7865">
        <ele>85.5</ele>
        <time>2021-12-12T11:13:41Z</time>
      </trkpt>
      <trkpt lat="43.65071" lon="3.78687">
        <ele>82.3</ele>
        <time>2021-12-12T11:13:51Z</time>
      </trkpt>
      <trkpt lat="43.65054" lon="3.78718">
        <ele>83</ele>
        <time>2021-12-12T11:14:01Z</time>
      </trkpt>
      <trkpt lat="43.6504" lon="3.78751">
        <ele>82.2</ele>
        <time>2021-12-12T11:14:11Z</time>
      </trkpt>
      <trkpt lat="43.65045" lon="3.78772">
        <ele>78.6</ele>
        <time>2021-12-12T11:14:21Z</time>
      </trkpt>
      <trkpt lat="43.65069" lon="3.78781">
        <ele>74.6</ele>
        <time>2021-12-12T11:14:31Z</time>
      </trkpt>
      <trkpt lat="43.65074" lon="3.78813">
        <ele>70.1</ele>
        <time>2021-12-12T11:14:41Z</time>
      </trkpt>
      <trkpt lat="43.65054" lon="3.78851">
        <ele>69.2</ele>
        <time>2021-12-12T11:14:51Z</time>
      </trkpt>
      <trkpt lat="43.65026" lon="3.78885">
        <ele>68.3</ele>
        <time>2021-12-12T11:15:01Z</time>
      </trkpt>
      <trkpt lat="43.65012" lon="3.7891">
        <ele>66.1</ele>
        <time>2021-12-12T11:15:11Z</time>
      </trkpt>
      <trkpt lat="43.65035" lon="3.78902">
        <ele>64.3</ele>
        <time>2021-12-12T11:15:21Z</time>
      </trkpt>
      <trkpt lat="43.65059" lon="3.78887">
        <ele>62</ele>
        <time>2021-12-12T11:15:31Z</time>
      </trkpt>
      <trkpt lat="43.65044" lon="3.78916">
        <ele>60.8</ele>
        <time>2021-12-12T11:16:11Z</time>
      </trkpt>
      <trkpt lat="43.6503" lon="3.78937">
        <ele>59.9</ele>
        <time>2021-12-12T11:16:31Z</time>
      </trkpt>
      <trkpt lat="43.65004" lon="3.78954">
        <ele>60.9</ele>
        <time>2021-12-12T11:16:41Z</time>
      </trkpt>
      <trkpt lat="43.64975" lon="3.78979">
        <ele>60.5</ele>
        <time>2021-12-12T11:16:51Z</time>
      </trkpt>
      <trkpt lat="43.64942" lon="3.79004">
        <ele>58.8</ele>
        <time>2021-12-12T11:17:01Z</time>
      </trkpt>
      <trkpt lat="43.64916" lon="3.79027">
        <ele>58.3</ele>
        <time>2021-12-12T11:17:11Z</time>
      </trkpt>
      <trkpt lat="43.64889" lon="3.7904">
        <ele>59.3</ele>
        <time>2021-12-12T11:17:21Z</time>
      </trkpt>
      <trkpt lat="43.64865" lon="3.79064">
        <ele>58.1</ele>
        <time>2021-12-12T11:17:31Z</time>
      </trkpt>
      <trkpt lat="43.64839" lon="3.79085">
        <ele>58.8</ele>
        <time>2021-12-12T11:17:41Z</time>
      </trkpt>
      <trkpt lat="43.64812" lon="3.79117">
        <ele>59.2</ele>
        <time>2021-12-12T11:17:51Z</time>
      </trkpt>
      <trkpt lat="43.64785" lon="3.79134">
        <ele>61.6</ele>
        <time>2021-12-12T11:18:01Z</time>
      </trkpt>
      <trkpt lat="43.64758" lon="3.79151">
        <ele>63.2</ele>
        <time>2021-12-12T11:18:11Z</time>
      </trkpt>
      <trkpt lat="43.64727" lon="3.79176">
        <ele>63.2</ele>
        <time>2021-12-12T11:18:21Z</time>
      </trkpt>
      <trkpt lat="43.64702" lon="3.79191">
        <ele>65.3</ele>
        <time>2021-12-12T11:18:31Z</time>
      </trkpt>
      <trkpt lat="43.64703" lon="3.79226">
        <ele>58</ele>
        <time>2021-12-12T11:18:41Z</time>
      </trkpt>
      <trkpt lat="43.64698" lon="3.79267">
        <ele>55.3</ele>
        <time>2021-12-12T11:18:51Z</time>
      </trkpt>
      <trkpt lat="43.6467" lon="3.79283">
        <ele>55.5</ele>
        <time>2021-12-12T11:19:01Z</time>
      </trkpt>
      <trkpt lat="43.64659" lon="3.79315">
        <ele>54.9</ele>
        <time>2021-12-12T11:19:11Z</time>
      </trkpt>
      <trkpt lat="43.64647" lon="3.79359">
        <ele>54.5</ele>
        <time>2021-12-12T11:19:21Z</time>
      </trkpt>
      <trkpt lat="43.64624" lon="3.79399">
        <ele>55.5</ele>
        <time>2021-12-12T11:19:31Z</time>
      </trkpt>
      <trkpt lat="43.64601" lon="3.79437">
        <ele>54.8</ele>
        <time>2021-12-12T11:19:41Z</time>
      </trkpt>
      <trkpt lat="43.64603" lon="3.79465">
        <ele>53.8</ele>
        <time>2021-12-12T11:19:51Z</time>
      </trkpt>
      <trkpt lat="43.6459" lon="3.795">
        <ele>53.2</ele>
        <time>2021-12-12T11:20:01Z</time>
      </trkpt>
      <trkpt lat="43.64574" lon="3.79539">
        <ele>53.7</ele>
        <time>2021-12-12T11:20:11Z</time>
      </trkpt>
      <trkpt lat="43.64565" lon="3.79583">
        <ele>53.3</ele>
        <time>2021-12-12T11:20:21Z</time>
      </trkpt>
      <trkpt lat="43.64553" lon="3.79619">
        <ele>53.8</ele>
        <time>2021-12-12T11:20:31Z</time>
      </trkpt>
      <trkpt lat="43.64542" lon="3.79653">
        <ele>53.5</ele>
        <time>2021-12-12T11:20:41Z</time>
      </trkpt>
      <trkpt lat="43.64522" lon="3.79686">
        <ele>53.7</ele>
        <time>2021-12-12T11:20:51Z</time>
      </trkpt>
      <trkpt lat="43.64512" lon="3.79711">
        <ele>53.5</ele>
        <time>2021-12-12T11:21:01Z</time>
      </trkpt>
      <trkpt lat="43.64494" lon="3.79745">
        <ele>53.5</ele>
        <time>2021-12-12T11:21:11Z</time>
      </trkpt>
      <trkpt lat="43.64468" lon="3.7977">
        <ele>54</ele>
        <time>2021-12-12T11:21:21Z</time>
      </trkpt>
      <trkpt lat="43.64436" lon="3.79785">
        <ele>53.4</ele>
        <time>2021-12-12T11:21:31Z</time>
      </trkpt>
      <trkpt lat="43.64402" lon="3.79779">
        <ele>53</ele>
        <time>2021-12-12T11:21:41Z</time>
      </trkpt>
      <trkpt lat="43.64362" lon="3.79785">
        <ele>53</ele>
        <time>2021-12-12T11:21:51Z</time>
      </trkpt>
      <trkpt lat="43.64323" lon="3.79805">
        <ele>53</ele>
        <time>2021-12-12T11:22:01Z</time>
      </trkpt>
      <trkpt lat="43.64286" lon="3.79822">
        <ele>53.7</ele>
        <time>2021-12-12T11:22:11Z</time>
      </trkpt>
      <trkpt lat="43.64249" lon="3.79843">
        <ele>53</ele>
        <time>2021-12-12T11:22:21Z</time>
      </trkpt>
      <trkpt lat="43.64219" lon="3.79872">
        <ele>52.7</ele>
        <time>2021-12-12T11:22:31Z</time>
      </trkpt>
      <trkpt lat="43.64199" lon="3.79892">
        <ele>52.4</ele>
        <time>2021-12-12T11:22:41Z</time>
      </trkpt>
      <trkpt lat="43.64154" lon="3.79924">
        <ele>52.8</ele>
        <time>2021-12-12T11:22:51Z</time>
      </trkpt>
      <trkpt lat="43.64111" lon="3.79953">
        <ele>52.8</ele>
        <time>2021-12-12T11:23:01Z</time>
      </trkpt>
      <trkpt lat="43.6407" lon="3.79984">
        <ele>52.5</ele>
        <time>2021-12-12T11:23:11Z</time>
      </trkpt>
      <trkpt lat="43.64036" lon="3.80011">
        <ele>52.9</ele>
        <time>2021-12-12T11:23:21Z</time>
      </trkpt>
      <trkpt lat="43.64006" lon="3.80035">
        <ele>52.9</ele>
        <time>2021-12-12T11:23:31Z</time>
      </trkpt>
      <trkpt lat="43.63975" lon="3.80059">
        <ele>53</ele>
        <time>2021-12-12T11:23:41Z</time>
      </trkpt>
      <trkpt lat="43.63939" lon="3.80078">
        <ele>53.2</ele>
        <time>2021-12-12T11:23:51Z</time>
      </trkpt>
      <trkpt lat="43.63899" lon="3.80095">
        <ele>51.5</ele>
        <time>2021-12-12T11:24:01Z</time>
      </trkpt>
      <trkpt lat="43.63877" lon="3.80128">
        <ele>55.4</ele>
        <time>2021-12-12T11:24:11Z</time>
      </trkpt>
      <trkpt lat="43.63863" lon="3.80152">
        <ele>56.5</ele>
        <time>2021-12-12T11:24:21Z</time>
      </trkpt>
      <trkpt lat="43.63848" lon="3.8018">
        <ele>56.9</ele>
        <time>2021-12-12T11:24:31Z</time>
      </trkpt>
      <trkpt lat="43.63842" lon="3.80217">
        <ele>56.9</ele>
        <time>2021-12-12T11:24:41Z</time>
      </trkpt>
      <trkpt lat="43.63842" lon="3.80252">
        <ele>56.4</ele>
        <time>2021-12-12T11:24:51Z</time>
      </trkpt>
      <trkpt lat="43.63857" lon="3.8029">
        <ele>57.5</ele>
        <time>2021-12-12T11:25:01Z</time>
      </trkpt>
      <trkpt lat="43.63871" lon="3.80327">
        <ele>57.7</ele>
        <time>2021-12-12T11:25:11Z</time>
      </trkpt>
      <trkpt lat="43.63889" lon="3.80373">
        <ele>56.7</ele>
        <time>2021-12-12T11:25:21Z</time>
      </trkpt>
      <trkpt lat="43.63908" lon="3.80427">
        <ele>56.6</ele>
        <time>2021-12-12T11:25:41Z</time>
      </trkpt>
      <trkpt lat="43.63916" lon="3.80467">
        <ele>55.9</ele>
        <time>2021-12-12T11:26:01Z</time>
      </trkpt>
      <trkpt lat="43.63911" lon="3.8052">
        <ele>54.3</ele>
        <time>2021-12-12T11:26:11Z</time>
      </trkpt>
      <trkpt lat="43.6391" lon="3.80575">
        <ele>51.8</ele>
        <time>2021-12-12T11:26:21Z</time>
      </trkpt>
      <trkpt lat="43.6391" lon="3.80628">
        <ele>50.8</ele>
        <time>2021-12-12T11:26:31Z</time>
      </trkpt>
      <trkpt lat="43.63907" lon="3.80677">
        <ele>50.3</ele>
        <time>2021-12-12T11:26:41Z</time>
      </trkpt>
      <trkpt lat="43.63908" lon="3.80697">
        <ele>50.4</ele>
        <time>2021-12-12T11:27:01Z</time>
      </trkpt>
      <trkpt lat="43.63923" lon="3.80698">
        <ele>52.2</ele>
        <time>2021-12-12T11:27:21Z</time>
      </trkpt>
      <trkpt lat="43.63941" lon="3.80708">
        <ele>56.7</ele>
        <time>2021-12-12T11:27:31Z</time>
      </trkpt>
      <trkpt lat="43.63951" lon="3.80715">
        <ele>59.3</ele>
        <time>2021-12-12T11:27:51Z</time>
      </trkpt>
      <trkpt lat="43.63961" lon="3.80717">
        <ele>60.7</ele>
        <time>2021-12-12T11:28:01Z</time>
      </trkpt>
      <trkpt lat="43.63971" lon="3.80725">
        <ele>63.9</ele>
        <time>2021-12-12T11:28:11Z</time>
      </trkpt>
      <trkpt lat="43.63979" lon="3.80732">
        <ele>66.5</ele>
        <time>2021-12-12T11:28:21Z</time>
      </trkpt>
      <trkpt lat="43.63988" lon="3.80739">
        <ele>68.1</ele>
        <time>2021-12-12T11:28:31Z</time>
      </trkpt>
      <trkpt lat="43.63998" lon="3.80741">
        <ele>67.9</ele>
        <time>2021-12-12T11:28:41Z</time>
      </trkpt>
      <trkpt lat="43.64005" lon="3.8075">
        <ele>69.2</ele>
        <time>2021-12-12T11:28:51Z</time>
      </trkpt>
      <trkpt lat="43.64011" lon="3.8076">
        <ele>72.1</ele>
        <time>2021-12-12T11:29:01Z</time>
      </trkpt>
      <trkpt lat="43.64017" lon="3.80772">
        <ele>74.6</ele>
        <time>2021-12-12T11:29:11Z</time>
      </trkpt>
      <trkpt lat="43.64025" lon="3.80777">
        <ele>74.4</ele>
        <time>2021-12-12T11:29:21Z</time>
      </trkpt>
      <trkpt lat="43.64043" lon="3.80768">
        <ele>72.2</ele>
        <time>2021-12-12T11:29:51Z</time>
      </trkpt>
      <trkpt lat="43.64055" lon="3.80762">
        <ele>71.3</ele>
        <time>2021-12-12T11:30:11Z</time>
      </trkpt>
      <trkpt lat="43.6406" lon="3.80734">
        <ele>71.4</ele>
        <time>2021-12-12T11:30:21Z</time>
      </trkpt>
      <trkpt lat="43.64061" lon="3.80711">
        <ele>70.6</ele>
        <time>2021-12-12T11:30:31Z</time>
      </trkpt>
      <trkpt lat="43.64072" lon="3.80682">
        <ele>71.1</ele>
        <time>2021-12-12T11:30:41Z</time>
      </trkpt>
      <trkpt lat="43.64086" lon="3.80663">
        <ele>71.5</ele>
        <time>2021-12-12T11:30:51Z</time>
      </trkpt>
      <trkpt lat="43.6409" lon="3.80635">
        <ele>70.6</ele>
        <time>2021-12-12T11:31:01Z</time>
      </trkpt>
      <trkpt lat="43.64096" lon="3.80612">
        <ele>73.1</ele>
        <time>2021-12-12T11:31:11Z</time>
      </trkpt>
      <trkpt lat="43.64101" lon="3.80597">
        <ele>74.3</ele>
        <time>2021-12-12T11:31:21Z</time>
      </trkpt>
      <trkpt lat="43.64109" lon="3.80585">
        <ele>75.7</ele>
        <time>2021-12-12T11:31:31Z</time>
      </trkpt>
      <trkpt lat="43.64115" lon="3.80593">
        <ele>77.2</ele>
        <time>2021-12-12T11:31:41Z</time>
      </trkpt>
      <trkpt lat="43.64119" lon="3.80606">
        <ele>78.5</ele>
        <time>2021-12-12T11:31:51Z</time>
      </trkpt>
      <trkpt lat="43.64127" lon="3.80616">
        <ele>79.9</ele>
        <time>2021-12-12T11:32:01Z</time>
      </trkpt>
      <trkpt lat="43.64139" lon="3.80623">
        <ele>81.3</ele>
        <time>2021-12-12T11:32:11Z</time>
      </trkpt>
      <trkpt lat="43.6415" lon="3.80632">
        <ele>80.4</ele>
        <time>2021-12-12T11:32:21Z</time>
      </trkpt>
      <trkpt lat="43.64154" lon="3.80648">
        <ele>79.8</ele>
        <time>2021-12-12T11:32:31Z</time>
      </trkpt>
      <trkpt lat="43.64155" lon="3.80667">
        <ele>80.5</ele>
        <time>2021-12-12T11:32:41Z</time>
      </trkpt>
      <trkpt lat="43.64158" lon="3.80687">
        <ele>83</ele>
        <time>2021-12-12T11:32:51Z</time>
      </trkpt>
      <trkpt lat="43.64161" lon="3.80704">
        <ele>84.6</ele>
        <time>2021-12-12T11:33:01Z</time>
      </trkpt>
      <trkpt lat="43.64163" lon="3.80717">
        <ele>85.8</ele>
        <time>2021-12-12T11:33:11Z</time>
      </trkpt>
      <trkpt lat="43.64166" lon="3.80732">
        <ele>87.8</ele>
        <time>2021-12-12T11:33:21Z</time>
      </trkpt>
      <trkpt lat="43.64165" lon="3.80742">
        <ele>89.7</ele>
        <time>2021-12-12T11:33:41Z</time>
      </trkpt>
      <trkpt lat="43.64165" lon="3.80755">
        <ele>91.8</ele>
        <time>2021-12-12T11:33:51Z</time>
      </trkpt>
      <trkpt lat="43.64163" lon="3.80773">
        <ele>94.6</ele>
        <time>2021-12-12T11:34:11Z</time>
      </trkpt>
      <trkpt lat="43.64167" lon="3.8079">
        <ele>96.2</ele>
        <time>2021-12-12T11:34:31Z</time>
      </trkpt>
      <trkpt lat="43.64166" lon="3.80797">
        <ele>97</ele>
        <time>2021-12-12T11:34:41Z</time>
      </trkpt>
      <trkpt lat="43.64166" lon="3.80812">
        <ele>97.9</ele>
        <time>2021-12-12T11:34:51Z</time>
      </trkpt>
      <trkpt lat="43.64172" lon="3.80847">
        <ele>98.7</ele>
        <time>2021-12-12T11:36:01Z</time>
      </trkpt>
      <trkpt lat="43.64177" lon="3.80868">
        <ele>101</ele>
        <time>2021-12-12T11:36:21Z</time>
      </trkpt>
      <trkpt lat="43.64184" lon="3.80886">
        <ele>103</ele>
        <time>2021-12-12T11:36:31Z</time>
      </trkpt>
      <trkpt lat="43.64187" lon="3.80904">
        <ele>103.1</ele>
        <time>2021-12-12T11:36:41Z</time>
      </trkpt>
      <trkpt lat="43.64177" lon="3.80919">
        <ele>104.3</ele>
        <time>2021-12-12T11:36:51Z</time>
      </trkpt>
      <trkpt lat="43.64166" lon="3.80933">
        <ele>104.8</ele>
        <time>2021-12-12T11:37:01Z</time>
      </trkpt>
      <trkpt lat="43.64149" lon="3.80958">
        <ele>102.1</ele>
        <time>2021-12-12T11:37:11Z</time>
      </trkpt>
      <trkpt lat="43.64124" lon="3.81">
        <ele>103.7</ele>
        <time>2021-12-12T11:37:21Z</time>
      </trkpt>
      <trkpt lat="43.64115" lon="3.81018">
        <ele>105.8</ele>
        <time>2021-12-12T11:37:31Z</time>
      </trkpt>
      <trkpt lat="43.64111" lon="3.81034">
        <ele>107.2</ele>
        <time>2021-12-12T11:37:41Z</time>
      </trkpt>
      <trkpt lat="43.64106" lon="3.81049">
        <ele>108.9</ele>
        <time>2021-12-12T11:37:51Z</time>
      </trkpt>
      <trkpt lat="43.64099" lon="3.81064">
        <ele>111.6</ele>
        <time>2021-12-12T11:38:01Z</time>
      </trkpt>
      <trkpt lat="43.64091" lon="3.81076">
        <ele>114.2</ele>
        <time>2021-12-12T11:38:11Z</time>
      </trkpt>
      <trkpt lat="43.64086" lon="3.81088">
        <ele>115.8</ele>
        <time>2021-12-12T11:38:21Z</time>
      </trkpt>
      <trkpt lat="43.6409" lon="3.81101">
        <ele>116.1</ele>
        <time>2021-12-12T11:38:31Z</time>
      </trkpt>
      <trkpt lat="43.64103" lon="3.81115">
        <ele>116.4</ele>
        <time>2021-12-12T11:38:41Z</time>
      </trkpt>
      <trkpt lat="43.6412" lon="3.81138">
        <ele>115.6</ele>
        <time>2021-12-12T11:38:51Z</time>
      </trkpt>
      <trkpt lat="43.64141" lon="3.81162">
        <ele>117</ele>
        <time>2021-12-12T11:39:01Z</time>
      </trkpt>
      <trkpt lat="43.64161" lon="3.81185">
        <ele>117.3</ele>
        <time>2021-12-12T11:39:11Z</time>
      </trkpt>
      <trkpt lat="43.6418" lon="3.81209">
        <ele>117.1</ele>
        <time>2021-12-12T11:39:21Z</time>
      </trkpt>
      <trkpt lat="43.64198" lon="3.81237">
        <ele>117.2</ele>
        <time>2021-12-12T11:39:31Z</time>
      </trkpt>
      <trkpt lat="43.64216" lon="3.81268">
        <ele>115.8</ele>
        <time>2021-12-12T11:39:41Z</time>
      </trkpt>
      <trkpt lat="43.64232" lon="3.813">
        <ele>116.6</ele>
        <time>2021-12-12T11:39:51Z</time>
      </trkpt>
      <trkpt lat="43.64253" lon="3.8133">
        <ele>117.3</ele>
        <time>2021-12-12T11:40:01Z</time>
      </trkpt>
      <trkpt lat="43.64268" lon="3.81363">
        <ele>117.4</ele>
        <time>2021-12-12T11:40:11Z</time>
      </trkpt>
      <trkpt lat="43.64282" lon="3.81395">
        <ele>118</ele>
        <time>2021-12-12T11:40:21Z</time>
      </trkpt>
      <trkpt lat="43.64293" lon="3.81426">
        <ele>119.3</ele>
        <time>2021-12-12T11:40:31Z</time>
      </trkpt>
      <trkpt lat="43.64302" lon="3.81456">
        <ele>121.8</ele>
        <time>2021-12-12T11:40:41Z</time>
      </trkpt>
      <trkpt lat="43.64311" lon="3.81488">
        <ele>121.5</ele>
        <time>2021-12-12T11:40:51Z</time>
      </trkpt>
      <trkpt lat="43.64319" lon="3.8152">
        <ele>122.6</ele>
        <time>2021-12-12T11:41:01Z</time>
      </trkpt>
      <trkpt lat="43.64326" lon="3.81553">
        <ele>122.5</ele>
        <time>2021-12-12T11:41:11Z</time>
      </trkpt>
      <trkpt lat="43.64335" lon="3.81588">
        <ele>122.6</ele>
        <time>2021-12-12T11:41:21Z</time>
      </trkpt>
      <trkpt lat="43.64347" lon="3.81625">
        <ele>121.2</ele>
        <time>2021-12-12T11:41:31Z</time>
      </trkpt>
      <trkpt lat="43.6436" lon="3.81659">
        <ele>121.2</ele>
        <time>2021-12-12T11:41:41Z</time>
      </trkpt>
      <trkpt lat="43.64374" lon="3.81701">
        <ele>119.8</ele>
        <time>2021-12-12T11:41:51Z</time>
      </trkpt>
      <trkpt lat="43.64392" lon="3.81743">
        <ele>119</ele>
        <time>2021-12-12T11:42:01Z</time>
      </trkpt>
      <trkpt lat="43.64411" lon="3.81775">
        <ele>119</ele>
        <time>2021-12-12T11:42:11Z</time>
      </trkpt>
      <trkpt lat="43.6442" lon="3.81812">
        <ele>117.4</ele>
        <time>2021-12-12T11:42:21Z</time>
      </trkpt>
      <trkpt lat="43.64417" lon="3.81879">
        <ele>114.7</ele>
        <time>2021-12-12T11:42:31Z</time>
      </trkpt>
      <trkpt lat="43.64412" lon="3.81923">
        <ele>112.6</ele>
        <time>2021-12-12T11:42:41Z</time>
      </trkpt>
      <trkpt lat="43.64396" lon="3.81965">
        <ele>109.8</ele>
        <time>2021-12-12T11:42:51Z</time>
      </trkpt>
      <trkpt lat="43.64372" lon="3.82022">
        <ele>107.8</ele>
        <time>2021-12-12T11:43:01Z</time>
      </trkpt>
      <trkpt lat="43.64352" lon="3.8207">
        <ele>105.4</ele>
        <time>2021-12-12T11:43:11Z</time>
      </trkpt>
      <trkpt lat="43.64344" lon="3.82113">
        <ele>102.8</ele>
        <time>2021-12-12T11:43:21Z</time>
      </trkpt>
      <trkpt lat="43.6435" lon="3.82151">
        <ele>101</ele>
        <time>2021-12-12T11:43:31Z</time>
      </trkpt>
      <trkpt lat="43.64357" lon="3.82189">
        <ele>100.1</ele>
        <time>2021-12-12T11:43:41Z</time>
      </trkpt>
      <trkpt lat="43.64368" lon="3.82235">
        <ele>98.4</ele>
        <time>2021-12-12T11:43:51Z</time>
      </trkpt>
      <trkpt lat="43.64356" lon="3.82269">
        <ele>98.2</ele>
        <time>2021-12-12T11:44:01Z</time>
      </trkpt>
      <trkpt lat="43.64329" lon="3.82292">
        <ele>98.6</ele>
        <time>2021-12-12T11:44:11Z</time>
      </trkpt>
      <trkpt lat="43.64298" lon="3.82295">
        <ele>99.1</ele>
        <time>2021-12-12T11:44:21Z</time>
      </trkpt>
      <trkpt lat="43.64267" lon="3.82307">
        <ele>99.4</ele>
        <time>2021-12-12T11:44:31Z</time>
      </trkpt>
      <trkpt lat="43.64242" lon="3.82303">
        <ele>100.8</ele>
        <time>2021-12-12T11:44:41Z</time>
      </trkpt>
      <trkpt lat="43.64219" lon="3.82304">
        <ele>102</ele>
        <time>2021-12-12T11:44:51Z</time>
      </trkpt>
      <trkpt lat="43.64198" lon="3.82317">
        <ele>102.3</ele>
        <time>2021-12-12T11:45:01Z</time>
      </trkpt>
      <trkpt lat="43.64183" lon="3.82344">
        <ele>102.7</ele>
        <time>2021-12-12T11:45:11Z</time>
      </trkpt>
      <trkpt lat="43.64171" lon="3.82372">
        <ele>102.6</ele>
        <time>2021-12-12T11:45:21Z</time>
      </trkpt>
      <trkpt lat="43.64157" lon="3.82403">
        <ele>101</ele>
        <time>2021-12-12T11:45:31Z</time>
      </trkpt>
      <trkpt lat="43.64151" lon="3.82431">
        <ele>99.9</ele>
        <time>2021-12-12T11:45:41Z</time>
      </trkpt>
      <trkpt lat="43.64144" lon="3.82464">
        <ele>99.1</ele>
        <time>2021-12-12T11:45:51Z</time>
      </trkpt>
      <trkpt lat="43.64125" lon="3.82504">
        <ele>96.9</ele>
        <time>2021-12-12T11:46:01Z</time>
      </trkpt>
      <trkpt lat="43.64108" lon="3.8255">
        <ele>95.1</ele>
        <time>2021-12-12T11:46:11Z</time>
      </trkpt>
      <trkpt lat="43.64086" lon="3.8261">
        <ele>93</ele>
        <time>2021-12-12T11:46:21Z</time>
      </trkpt>
      <trkpt lat="43.64061" lon="3.82682">
        <ele>88.5</ele>
        <time>2021-12-12T11:46:31Z</time>
      </trkpt>
      <trkpt lat="43.64026" lon="3.8276">
        <ele>84.3</ele>
        <time>2021-12-12T11:46:41Z</time>
      </trkpt>
      <trkpt lat="43.63993" lon="3.82793">
        <ele>81.9</ele>
        <time>2021-12-12T11:46:51Z</time>
      </trkpt>
      <trkpt lat="43.63965" lon="3.82802">
        <ele>79.9</ele>
        <time>2021-12-12T11:47:01Z</time>
      </trkpt>
      <trkpt lat="43.63927" lon="3.82824">
        <ele>78.6</ele>
        <time>2021-12-12T11:47:11Z</time>
      </trkpt>
      <trkpt lat="43.63906" lon="3.82782">
        <ele>79.8</ele>
        <time>2021-12-12T11:47:21Z</time>
      </trkpt>
      <trkpt lat="43.63886" lon="3.82744">
        <ele>81</ele>
        <time>2021-12-12T11:47:31Z</time>
      </trkpt>
      <trkpt lat="43.63866" lon="3.82717">
        <ele>81.7</ele>
        <time>2021-12-12T11:47:41Z</time>
      </trkpt>
      <trkpt lat="43.6383" lon="3.82721">
        <ele>81</ele>
        <time>2021-12-12T11:47:51Z</time>
      </trkpt>
      <trkpt lat="43.63785" lon="3.82741">
        <ele>79.6</ele>
        <time>2021-12-12T11:48:01Z</time>
      </trkpt>
      <trkpt lat="43.63745" lon="3.82751">
        <ele>78.1</ele>
        <time>2021-12-12T11:48:11Z</time>
      </trkpt>
      <trkpt lat="43.63709" lon="3.82757">
        <ele>79.1</ele>
        <time>2021-12-12T11:48:21Z</time>
      </trkpt>
      <trkpt lat="43.63671" lon="3.82766">
        <ele>78.8</ele>
        <time>2021-12-12T11:48:31Z</time>
      </trkpt>
      <trkpt lat="43.63644" lon="3.82754">
        <ele>79</ele>
        <time>2021-12-12T11:48:41Z</time>
      </trkpt>
      <trkpt lat="43.63644" lon="3.82716">
        <ele>81.7</ele>
        <time>2021-12-12T11:48:51Z</time>
      </trkpt>
      <trkpt lat="43.63644" lon="3.82684">
        <ele>84.1</ele>
        <time>2021-12-12T11:49:01Z</time>
      </trkpt>
      <trkpt lat="43.63644" lon="3.82653">
        <ele>85.9</ele>
        <time>2021-12-12T11:49:11Z</time>
      </trkpt>
      <trkpt lat="43.63644" lon="3.8262">
        <ele>87.6</ele>
        <time>2021-12-12T11:49:21Z</time>
      </trkpt>
      <trkpt lat="43.63644" lon="3.82589">
        <ele>88.8</ele>
        <time>2021-12-12T11:49:31Z</time>
      </trkpt>
      <trkpt lat="43.63644" lon="3.82558">
        <ele>89</ele>
        <time>2021-12-12T11:49:41Z</time>
      </trkpt>
      <trkpt lat="43.63644" lon="3.82524">
        <ele>90</ele>
        <time>2021-12-12T11:49:51Z</time>
      </trkpt>
      <trkpt lat="43.63638" lon="3.82493">
        <ele>91</ele>
        <time>2021-12-12T11:50:01Z</time>
      </trkpt>
      <trkpt lat="43.63618" lon="3.82503">
        <ele>90.9</ele>
        <time>2021-12-12T11:50:11Z</time>
      </trkpt>
      <trkpt lat="43.63583" lon="3.82491">
        <ele>90.7</ele>
        <time>2021-12-12T11:50:21Z</time>
      </trkpt>
      <trkpt lat="43.63558" lon="3.82486">
        <ele>89.1</ele>
        <time>2021-12-12T11:50:31Z</time>
      </trkpt>
      <trkpt lat="43.63518" lon="3.82492">
        <ele>87.6</ele>
        <time>2021-12-12T11:50:41Z</time>
      </trkpt>
      <trkpt lat="43.63493" lon="3.82475">
        <ele>86.5</ele>
        <time>2021-12-12T11:50:51Z</time>
      </trkpt>
      <trkpt lat="43.63477" lon="3.8249">
        <ele>85.9</ele>
        <time>2021-12-12T11:51:01Z</time>
      </trkpt>
      <trkpt lat="43.6347" lon="3.82515">
        <ele>85.8</ele>
        <time>2021-12-12T11:51:11Z</time>
      </trkpt>
      <trkpt lat="43.63461" lon="3.82511">
        <ele>85.2</ele>
        <time>2021-12-12T11:51:21Z</time>
      </trkpt>
      <trkpt lat="43.63449" lon="3.82532">
        <ele>84.5</ele>
        <time>2021-12-12T11:51:41Z</time>
      </trkpt>
      <trkpt lat="43.63462" lon="3.82526">
        <ele>85.3</ele>
        <time>2021-12-12T11:52:11Z</time>
      </trkpt>
      <trkpt lat="43.63472" lon="3.82511">
        <ele>86</ele>
        <time>2021-12-12T11:52:31Z</time>
      </trkpt>
      <trkpt lat="43.63485" lon="3.82508">
        <ele>86.6</ele>
        <time>2021-12-12T11:52:51Z</time>
      </trkpt>
      <trkpt lat="43.63498" lon="3.82535">
        <ele>87.9</ele>
        <time>2021-12-12T11:53:01Z</time>
      </trkpt>
      <trkpt lat="43.63474" lon="3.82545">
        <ele>86.7</ele>
        <time>2021-12-12T11:53:11Z</time>
      </trkpt>
      <trkpt lat="43.6342" lon="3.82552">
        <ele>82.2</ele>
        <time>2021-12-12T11:53:21Z</time>
      </trkpt>
      <trkpt lat="43.63352" lon="3.82571">
        <ele>79.1</ele>
        <time>2021-12-12T11:53:31Z</time>
      </trkpt>
      <trkpt lat="43.63312" lon="3.826">
        <ele>79.8</ele>
        <time>2021-12-12T11:53:41Z</time>
      </trkpt>
      <trkpt lat="43.63283" lon="3.82625">
        <ele>80.7</ele>
        <time>2021-12-12T11:53:51Z</time>
      </trkpt>
      <trkpt lat="43.63257" lon="3.82652">
        <ele>81.7</ele>
        <time>2021-12-12T11:54:01Z</time>
      </trkpt>
      <trkpt lat="43.63236" lon="3.82682">
        <ele>82.1</ele>
        <time>2021-12-12T11:54:11Z</time>
      </trkpt>
      <trkpt lat="43.63218" lon="3.82717">
        <ele>83</ele>
        <time>2021-12-12T11:54:21Z</time>
      </trkpt>
      <trkpt lat="43.63194" lon="3.82757">
        <ele>82.9</ele>
        <time>2021-12-12T11:54:31Z</time>
      </trkpt>
      <trkpt lat="43.63165" lon="3.82809">
        <ele>80.3</ele>
        <time>2021-12-12T11:54:41Z</time>
      </trkpt>
      <trkpt lat="43.63146" lon="3.82848">
        <ele>75.1</ele>
        <time>2021-12-12T11:54:51Z</time>
      </trkpt>
      <trkpt lat="43.63136" lon="3.82869">
        <ele>72.7</ele>
        <time>2021-12-12T11:55:01Z</time>
      </trkpt>
      <trkpt lat="43.63123" lon="3.8289">
        <ele>72.5</ele>
        <time>2021-12-12T11:55:11Z</time>
      </trkpt>
      <trkpt lat="43.63104" lon="3.82927">
        <ele>74.5</ele>
        <time>2021-12-12T11:55:21Z</time>
      </trkpt>
      <trkpt lat="43.63092" lon="3.82951">
        <ele>77.7</ele>
        <time>2021-12-12T11:55:31Z</time>
      </trkpt>
      <trkpt lat="43.63081" lon="3.8297">
        <ele>79.1</ele>
        <time>2021-12-12T11:55:41Z</time>
      </trkpt>
      <trkpt lat="43.6307" lon="3.82988">
        <ele>80</ele>
        <time>2021-12-12T11:55:51Z</time>
      </trkpt>
      <trkpt lat="43.63054" lon="3.83004">
        <ele>81</ele>
        <time>2021-12-12T11:56:01Z</time>
      </trkpt>
      <trkpt lat="43.6304" lon="3.83027">
        <ele>81.5</ele>
        <time>2021-12-12T11:56:11Z</time>
      </trkpt>
      <trkpt lat="43.63029" lon="3.8306">
        <ele>82</ele>
        <time>2021-12-12T11:56:21Z</time>
      </trkpt>
      <trkpt lat="43.63019" lon="3.831">
        <ele>81.4</ele>
        <time>2021-12-12T11:56:31Z</time>
      </trkpt>
      <trkpt lat="43.62999" lon="3.83117">
        <ele>81.2</ele>
        <time>2021-12-12T11:56:41Z</time>
      </trkpt>
      <trkpt lat="43.62965" lon="3.83107">
        <ele>82</ele>
        <time>2021-12-12T11:56:51Z</time>
      </trkpt>
      <trkpt lat="43.62926" lon="3.83094">
        <ele>82.3</ele>
        <time>2021-12-12T11:57:01Z</time>
      </trkpt>
      <trkpt lat="43.62882" lon="3.83085">
        <ele>83</ele>
        <time>2021-12-12T11:57:11Z</time>
      </trkpt>
      <trkpt lat="43.62844" lon="3.83086">
        <ele>83.7</ele>
        <time>2021-12-12T11:57:21Z</time>
      </trkpt>
      <trkpt lat="43.6281" lon="3.8309">
        <ele>84.2</ele>
        <time>2021-12-12T11:57:31Z</time>
      </trkpt>
      <trkpt lat="43.62781" lon="3.83097">
        <ele>85.4</ele>
        <time>2021-12-12T11:57:41Z</time>
      </trkpt>
      <trkpt lat="43.62753" lon="3.83105">
        <ele>85.9</ele>
        <time>2021-12-12T11:57:51Z</time>
      </trkpt>
      <trkpt lat="43.6272" lon="3.83121">
        <ele>85.5</ele>
        <time>2021-12-12T11:58:01Z</time>
      </trkpt>
      <trkpt lat="43.62696" lon="3.83136">
        <ele>84.1</ele>
        <time>2021-12-12T11:58:11Z</time>
      </trkpt>
      <trkpt lat="43.62677" lon="3.83149">
        <ele>83</ele>
        <time>2021-12-12T11:58:21Z</time>
      </trkpt>
      <trkpt lat="43.62658" lon="3.83168">
        <ele>81.7</ele>
        <time>2021-12-12T11:58:31Z</time>
      </trkpt>
      <trkpt lat="43.62636" lon="3.83186">
        <ele>80.9</ele>
        <time>2021-12-12T11:58:41Z</time>
      </trkpt>
      <trkpt lat="43.62603" lon="3.83212">
        <ele>79.6</ele>
        <time>2021-12-12T11:58:51Z</time>
      </trkpt>
      <trkpt lat="43.6258" lon="3.83254">
        <ele>78.8</ele>
        <time>2021-12-12T11:59:01Z</time>
      </trkpt>
      <trkpt lat="43.62552" lon="3.8329">
        <ele>77.7</ele>
        <time>2021-12-12T11:59:11Z</time>
      </trkpt>
      <trkpt lat="43.62536" lon="3.83342">
        <ele>76.6</ele>
        <time>2021-12-12T11:59:21Z</time>
      </trkpt>
      <trkpt lat="43.62521" lon="3.83391">
        <ele>76.5</ele>
        <time>2021-12-12T11:59:31Z</time>
      </trkpt>
      <trkpt lat="43.62507" lon="3.83421">
        <ele>74.8</ele>
        <time>2021-12-12T11:59:41Z</time>
      </trkpt>
      <trkpt lat="43.62478" lon="3.83425">
        <ele>74.3</ele>
        <time>2021-12-12T12:03:11Z</time>
      </trkpt>
    </trkseg>
  </trk>
</gpx>